<?xml version="1.0" encoding="UTF-8" standalone="no" ?>
<gpx xmlns="http://www.topografix.com/GPX/1/1" xmlns:xsi="http://www.w3.org/2001/XMLSchema-instance" xsi:schemaLocation="http://www.topografix.com/GPX/1/1 http://www.topografix.com/GPX/1/1/gpx.xsd" version="1.1" creator="VisuGPX - https://www.visugpx.com">
  <metadata>
    <name>GTV_HP</name>
    <desc><![CDATA[Grand Traversée du vercors variante des hauts plateaux]]></desc>
  </metadata>
  <trk>
    <name><![CDATA[GTV_HP]]></name>
    <trkseg>
      <trkpt lat="45.01351" lon="5.4712">
        <ele>1242.2</ele>
        <time>2010-05-07T20:50:15Z</time>
      </trkpt>
      <trkpt lat="45.01305" lon="5.47165">
        <ele>1247</ele>
        <time>2010-05-07T20:50:21Z</time>
      </trkpt>
      <trkpt lat="45.01289" lon="5.4723">
        <ele>1258.6</ele>
        <time>2010-05-07T20:50:26Z</time>
      </trkpt>
      <trkpt lat="45.01233" lon="5.47302">
        <ele>1269.7</ele>
        <time>2010-05-07T20:50:35Z</time>
      </trkpt>
      <trkpt lat="45.01179" lon="5.47328">
        <ele>1272.4</ele>
        <time>2010-05-07T20:50:41Z</time>
      </trkpt>
      <trkpt lat="45.01135" lon="5.47429">
        <ele>1293.1</ele>
        <time>2010-05-07T20:50:51Z</time>
      </trkpt>
      <trkpt lat="45.01083" lon="5.47436">
        <ele>1292.9</ele>
        <time>2010-05-07T20:50:56Z</time>
      </trkpt>
      <trkpt lat="45.01035" lon="5.47562">
        <ele>1322.1</ele>
        <time>2010-05-07T20:51:08Z</time>
      </trkpt>
      <trkpt lat="45.00953" lon="5.47669">
        <ele>1338.7</ele>
        <time>2010-05-07T20:51:20Z</time>
      </trkpt>
      <trkpt lat="45.00821" lon="5.47743">
        <ele>1345.2</ele>
        <time>2010-05-07T20:51:36Z</time>
      </trkpt>
      <trkpt lat="45.00731" lon="5.47844">
        <ele>1354.6</ele>
        <time>2010-05-07T20:51:49Z</time>
      </trkpt>
      <trkpt lat="45.00679" lon="5.47868">
        <ele>1356.4</ele>
        <time>2010-05-07T20:51:55Z</time>
      </trkpt>
      <trkpt lat="45.00603" lon="5.47848">
        <ele>1354.1</ele>
        <time>2010-05-07T20:52:03Z</time>
      </trkpt>
      <trkpt lat="45.00538" lon="5.47908">
        <ele>1358.6</ele>
        <time>2010-05-07T20:52:12Z</time>
      </trkpt>
      <trkpt lat="45.00479" lon="5.47927">
        <ele>1359.5</ele>
        <time>2010-05-07T20:52:19Z</time>
      </trkpt>
      <trkpt lat="45.00427" lon="5.47872">
        <ele>1354.7</ele>
        <time>2010-05-07T20:52:26Z</time>
      </trkpt>
      <trkpt lat="45.00332" lon="5.47953">
        <ele>1359.7</ele>
        <time>2010-05-07T20:52:38Z</time>
      </trkpt>
      <trkpt lat="45.00279" lon="5.47968">
        <ele>1360</ele>
        <time>2010-05-07T20:52:44Z</time>
      </trkpt>
      <trkpt lat="45.00224" lon="5.48033">
        <ele>1363.4</ele>
        <time>2010-05-07T20:52:52Z</time>
      </trkpt>
      <trkpt lat="45.00104" lon="5.48033">
        <ele>1361.4</ele>
        <time>2010-05-07T20:53:05Z</time>
      </trkpt>
      <trkpt lat="44.99927" lon="5.47829">
        <ele>1352.4</ele>
        <time>2010-05-07T20:53:31Z</time>
      </trkpt>
      <trkpt lat="44.99828" lon="5.47733">
        <ele>1350.4</ele>
        <time>2010-05-07T20:53:44Z</time>
      </trkpt>
      <trkpt lat="44.99749" lon="5.47746">
        <ele>1353.4</ele>
        <time>2010-05-07T20:53:53Z</time>
      </trkpt>
      <trkpt lat="44.99713" lon="5.47698">
        <ele>1352.2</ele>
        <time>2010-05-07T20:53:59Z</time>
      </trkpt>
      <trkpt lat="44.99634" lon="5.47722">
        <ele>1355.7</ele>
        <time>2010-05-07T20:54:08Z</time>
      </trkpt>
      <trkpt lat="44.99595" lon="5.47633">
        <ele>1352.8</ele>
        <time>2010-05-07T20:54:16Z</time>
      </trkpt>
      <trkpt lat="44.99295" lon="5.47884">
        <ele>1372.4</ele>
        <time>2010-05-07T20:54:55Z</time>
      </trkpt>
      <trkpt lat="44.99262" lon="5.47859">
        <ele>1372.3</ele>
        <time>2010-05-07T20:54:59Z</time>
      </trkpt>
      <trkpt lat="44.99339" lon="5.47782">
        <ele>1367</ele>
        <time>2010-05-07T20:55:09Z</time>
      </trkpt>
      <trkpt lat="44.9929" lon="5.47738">
        <ele>1366.7</ele>
        <time>2010-05-07T20:55:16Z</time>
      </trkpt>
      <trkpt lat="44.99289" lon="5.47656">
        <ele>1363.5</ele>
        <time>2010-05-07T20:55:22Z</time>
      </trkpt>
      <trkpt lat="44.9919" lon="5.47622">
        <ele>1364.7</ele>
        <time>2010-05-07T20:55:33Z</time>
      </trkpt>
      <trkpt lat="44.99128" lon="5.47642">
        <ele>1364.8</ele>
        <time>2010-05-07T20:55:40Z</time>
      </trkpt>
      <trkpt lat="44.99034" lon="5.47578">
        <ele>1361.7</ele>
        <time>2010-05-07T20:55:52Z</time>
      </trkpt>
      <trkpt lat="44.98984" lon="5.47447">
        <ele>1356.1</ele>
        <time>2010-05-07T20:56:04Z</time>
      </trkpt>
      <trkpt lat="44.98854" lon="5.47393">
        <ele>1356.5</ele>
        <time>2010-05-07T20:56:19Z</time>
      </trkpt>
      <trkpt lat="44.98778" lon="5.47424">
        <ele>1358.5</ele>
        <time>2010-05-07T20:56:28Z</time>
      </trkpt>
      <trkpt lat="44.98661" lon="5.47172">
        <ele>1360.9</ele>
        <time>2010-05-07T20:56:51Z</time>
      </trkpt>
      <trkpt lat="44.98525" lon="5.47042">
        <ele>1370.4</ele>
        <time>2010-05-07T20:57:10Z</time>
      </trkpt>
      <trkpt lat="44.98454" lon="5.47038">
        <ele>1375.3</ele>
        <time>2010-05-07T20:57:17Z</time>
      </trkpt>
      <trkpt lat="44.98428" lon="5.46816">
        <ele>1384.5</ele>
        <time>2010-05-07T20:57:35Z</time>
      </trkpt>
      <trkpt lat="44.98381" lon="5.46708">
        <ele>1385.2</ele>
        <time>2010-05-07T20:57:45Z</time>
      </trkpt>
      <trkpt lat="44.984" lon="5.46622">
        <ele>1374.7</ele>
        <time>2010-05-07T20:57:52Z</time>
      </trkpt>
      <trkpt lat="44.9814" lon="5.46316">
        <ele>1355.9</ele>
        <time>2010-05-07T20:58:30Z</time>
      </trkpt>
      <trkpt lat="44.98113" lon="5.46233">
        <ele>1347.7</ele>
        <time>2010-05-07T20:58:37Z</time>
      </trkpt>
      <trkpt lat="44.98027" lon="5.46216">
        <ele>1348.5</ele>
        <time>2010-05-07T20:58:47Z</time>
      </trkpt>
      <trkpt lat="44.98046" lon="5.46118">
        <ele>1336.8</ele>
        <time>2010-05-07T20:58:55Z</time>
      </trkpt>
      <trkpt lat="44.98024" lon="5.4603">
        <ele>1327.3</ele>
        <time>2010-05-07T20:59:02Z</time>
      </trkpt>
      <trkpt lat="44.98032" lon="5.45908">
        <ele>1308</ele>
        <time>2010-05-07T20:59:12Z</time>
      </trkpt>
      <trkpt lat="44.97791" lon="5.45929">
        <ele>1319.3</ele>
        <time>2010-05-07T20:59:38Z</time>
      </trkpt>
      <trkpt lat="44.97719" lon="5.46135">
        <ele>1347.6</ele>
        <time>2010-05-07T20:59:56Z</time>
      </trkpt>
      <trkpt lat="44.97476" lon="5.46238">
        <ele>1366.4</ele>
        <time>2010-05-07T21:00:25Z</time>
      </trkpt>
      <trkpt lat="44.97237" lon="5.46242">
        <ele>1365.9</ele>
        <time>2010-05-07T21:00:51Z</time>
      </trkpt>
      <trkpt lat="44.97142" lon="5.46208">
        <ele>1360.4</ele>
        <time>2010-05-07T21:01:02Z</time>
      </trkpt>
      <trkpt lat="44.97063" lon="5.46098">
        <ele>1343.8</ele>
        <time>2010-05-07T21:01:14Z</time>
      </trkpt>
      <trkpt lat="44.97058" lon="5.45958">
        <ele>1322.9</ele>
        <time>2010-05-07T21:01:25Z</time>
      </trkpt>
      <trkpt lat="44.96916" lon="5.45886">
        <ele>1306.5</ele>
        <time>2010-05-07T21:01:42Z</time>
      </trkpt>
      <trkpt lat="44.96929" lon="5.45935">
        <ele>1317.9</ele>
        <time>2010-05-07T21:01:46Z</time>
      </trkpt>
      <trkpt lat="44.96906" lon="5.45977">
        <ele>1324.1</ele>
        <time>2010-05-07T21:01:51Z</time>
      </trkpt>
      <trkpt lat="44.96859" lon="5.45965">
        <ele>1321.7</ele>
        <time>2010-05-07T21:01:56Z</time>
      </trkpt>
      <trkpt lat="44.96865" lon="5.45902">
        <ele>1309.8</ele>
        <time>2010-05-07T21:02:01Z</time>
      </trkpt>
      <trkpt lat="44.96903" lon="5.45899">
        <ele>1309.3</ele>
        <time>2010-05-07T21:02:05Z</time>
      </trkpt>
      <trkpt lat="44.96902" lon="5.4587">
        <ele>1302.6</ele>
        <time>2010-05-07T21:02:07Z</time>
      </trkpt>
      <trkpt lat="44.9686" lon="5.45853">
        <ele>1298.1</ele>
        <time>2010-05-07T21:02:12Z</time>
      </trkpt>
      <trkpt lat="44.96829" lon="5.45734">
        <ele>1270.3</ele>
        <time>2010-05-07T21:02:22Z</time>
      </trkpt>
      <trkpt lat="44.96711" lon="5.45621">
        <ele>1244.1</ele>
        <time>2010-05-07T21:02:38Z</time>
      </trkpt>
      <trkpt lat="44.96705" lon="5.45704">
        <ele>1262.9</ele>
        <time>2010-05-07T21:02:45Z</time>
      </trkpt>
      <trkpt lat="44.96646" lon="5.45834">
        <ele>1295.7</ele>
        <time>2010-05-07T21:02:57Z</time>
      </trkpt>
      <trkpt lat="44.96615" lon="5.45995">
        <ele>1329.2</ele>
        <time>2010-05-07T21:03:10Z</time>
      </trkpt>
      <trkpt lat="44.96546" lon="5.45995">
        <ele>1332.9</ele>
        <time>2010-05-07T21:03:18Z</time>
      </trkpt>
      <trkpt lat="44.96498" lon="5.4608">
        <ele>1348.1</ele>
        <time>2010-05-07T21:03:26Z</time>
      </trkpt>
      <trkpt lat="44.9643" lon="5.4604">
        <ele>1345.4</ele>
        <time>2010-05-07T21:03:34Z</time>
      </trkpt>
      <trkpt lat="44.96348" lon="5.46054">
        <ele>1351.5</ele>
        <time>2010-05-07T21:03:44Z</time>
      </trkpt>
      <trkpt lat="44.9635" lon="5.45966">
        <ele>1338.8</ele>
        <time>2010-05-07T21:03:51Z</time>
      </trkpt>
      <trkpt lat="44.96424" lon="5.45905">
        <ele>1323.7</ele>
        <time>2010-05-07T21:04:00Z</time>
      </trkpt>
      <trkpt lat="44.96332" lon="5.45905">
        <ele>1328.5</ele>
        <time>2010-05-07T21:04:10Z</time>
      </trkpt>
      <trkpt lat="44.96274" lon="5.45851">
        <ele>1319</ele>
        <time>2010-05-07T21:04:18Z</time>
      </trkpt>
      <trkpt lat="44.96169" lon="5.45872">
        <ele>1329.7</ele>
        <time>2010-05-07T21:04:30Z</time>
      </trkpt>
      <trkpt lat="44.96147" lon="5.45931">
        <ele>1344.6</ele>
        <time>2010-05-07T21:04:35Z</time>
      </trkpt>
      <trkpt lat="44.96129" lon="5.46106">
        <ele>1369.5</ele>
        <time>2010-05-07T21:04:49Z</time>
      </trkpt>
      <trkpt lat="44.96086" lon="5.46122">
        <ele>1373.7</ele>
        <time>2010-05-07T21:04:54Z</time>
      </trkpt>
      <trkpt lat="44.96134" lon="5.46166">
        <ele>1377.4</ele>
        <time>2010-05-07T21:05:00Z</time>
      </trkpt>
      <trkpt lat="44.96078" lon="5.46191">
        <ele>1383.3</ele>
        <time>2010-05-07T21:05:07Z</time>
      </trkpt>
      <trkpt lat="44.9602" lon="5.46257">
        <ele>1394.5</ele>
        <time>2010-05-07T21:05:15Z</time>
      </trkpt>
      <trkpt lat="44.9591" lon="5.46186">
        <ele>1390.1</ele>
        <time>2010-05-07T21:05:29Z</time>
      </trkpt>
      <trkpt lat="44.95847" lon="5.46211">
        <ele>1394.5</ele>
        <time>2010-05-07T21:05:36Z</time>
      </trkpt>
      <trkpt lat="44.95694" lon="5.46165">
        <ele>1386.2</ele>
        <time>2010-05-07T21:05:53Z</time>
      </trkpt>
      <trkpt lat="44.95663" lon="5.46103">
        <ele>1378.3</ele>
        <time>2010-05-07T21:05:59Z</time>
      </trkpt>
      <trkpt lat="44.95637" lon="5.45986">
        <ele>1364</ele>
        <time>2010-05-07T21:06:09Z</time>
      </trkpt>
      <trkpt lat="44.95502" lon="5.45891">
        <ele>1347.7</ele>
        <time>2010-05-07T21:06:26Z</time>
      </trkpt>
      <trkpt lat="44.95396" lon="5.45912">
        <ele>1351.4</ele>
        <time>2010-05-07T21:06:38Z</time>
      </trkpt>
      <trkpt lat="44.95342" lon="5.46085">
        <ele>1371.5</ele>
        <time>2010-05-07T21:06:52Z</time>
      </trkpt>
      <trkpt lat="44.95354" lon="5.46132">
        <ele>1376.8</ele>
        <time>2010-05-07T21:06:56Z</time>
      </trkpt>
      <trkpt lat="44.95263" lon="5.46196">
        <ele>1382.2</ele>
        <time>2010-05-07T21:07:08Z</time>
      </trkpt>
      <trkpt lat="44.95232" lon="5.46148">
        <ele>1376.6</ele>
        <time>2010-05-07T21:07:13Z</time>
      </trkpt>
      <trkpt lat="44.95179" lon="5.46168">
        <ele>1377.8</ele>
        <time>2010-05-07T21:07:19Z</time>
      </trkpt>
      <trkpt lat="44.95144" lon="5.46102">
        <ele>1370.4</ele>
        <time>2010-05-07T21:07:25Z</time>
      </trkpt>
      <trkpt lat="44.95049" lon="5.46212">
        <ele>1380</ele>
        <time>2010-05-07T21:07:39Z</time>
      </trkpt>
      <trkpt lat="44.94971" lon="5.46189">
        <ele>1376.8</ele>
        <time>2010-05-07T21:07:48Z</time>
      </trkpt>
      <trkpt lat="44.94905" lon="5.46102">
        <ele>1367.7</ele>
        <time>2010-05-07T21:07:58Z</time>
      </trkpt>
      <trkpt lat="44.94827" lon="5.46195">
        <ele>1376</ele>
        <time>2010-05-07T21:08:09Z</time>
      </trkpt>
      <trkpt lat="44.9479" lon="5.46318">
        <ele>1387.4</ele>
        <time>2010-05-07T21:08:20Z</time>
      </trkpt>
      <trkpt lat="44.94765" lon="5.46293">
        <ele>1384.8</ele>
        <time>2010-05-07T21:08:23Z</time>
      </trkpt>
      <trkpt lat="44.94695" lon="5.46312">
        <ele>1385.8</ele>
        <time>2010-05-07T21:08:31Z</time>
      </trkpt>
      <trkpt lat="44.94641" lon="5.46245">
        <ele>1378.8</ele>
        <time>2010-05-07T21:08:39Z</time>
      </trkpt>
      <trkpt lat="44.9468" lon="5.46168">
        <ele>1372</ele>
        <time>2010-05-07T21:08:46Z</time>
      </trkpt>
      <trkpt lat="44.94661" lon="5.46019">
        <ele>1357.8</ele>
        <time>2010-05-07T21:08:58Z</time>
      </trkpt>
      <trkpt lat="44.94629" lon="5.4599">
        <ele>1354.8</ele>
        <time>2010-05-07T21:09:03Z</time>
      </trkpt>
      <trkpt lat="44.94624" lon="5.45814">
        <ele>1337.2</ele>
        <time>2010-05-07T21:09:16Z</time>
      </trkpt>
      <trkpt lat="44.94591" lon="5.45798">
        <ele>1336</ele>
        <time>2010-05-07T21:09:20Z</time>
      </trkpt>
      <trkpt lat="44.94547" lon="5.45754">
        <ele>1332.6</ele>
        <time>2010-05-07T21:09:26Z</time>
      </trkpt>
      <trkpt lat="44.94515" lon="5.4584">
        <ele>1340.8</ele>
        <time>2010-05-07T21:09:34Z</time>
      </trkpt>
      <trkpt lat="44.94395" lon="5.45884">
        <ele>1344.7</ele>
        <time>2010-05-07T21:09:48Z</time>
      </trkpt>
      <trkpt lat="44.94298" lon="5.45842">
        <ele>1342.5</ele>
        <time>2010-05-07T21:09:59Z</time>
      </trkpt>
      <trkpt lat="44.94177" lon="5.45807">
        <ele>1342.6</ele>
        <time>2010-05-07T21:10:13Z</time>
      </trkpt>
      <trkpt lat="44.94124" lon="5.45837">
        <ele>1345</ele>
        <time>2010-05-07T21:10:19Z</time>
      </trkpt>
      <trkpt lat="44.94022" lon="5.45836">
        <ele>1347.5</ele>
        <time>2010-05-07T21:10:30Z</time>
      </trkpt>
      <trkpt lat="44.93966" lon="5.45865">
        <ele>1349.3</ele>
        <time>2010-05-07T21:10:37Z</time>
      </trkpt>
      <trkpt lat="44.93882" lon="5.45805">
        <ele>1350.9</ele>
        <time>2010-05-07T21:10:48Z</time>
      </trkpt>
      <trkpt lat="44.93858" lon="5.45729">
        <ele>1351.6</ele>
        <time>2010-05-07T21:10:54Z</time>
      </trkpt>
      <trkpt lat="44.93805" lon="5.45731">
        <ele>1353.5</ele>
        <time>2010-05-07T21:11:00Z</time>
      </trkpt>
      <trkpt lat="44.93762" lon="5.45765">
        <ele>1354.7</ele>
        <time>2010-05-07T21:11:05Z</time>
      </trkpt>
      <trkpt lat="44.93719" lon="5.45888">
        <ele>1354.1</ele>
        <time>2010-05-07T21:11:16Z</time>
      </trkpt>
      <trkpt lat="44.9365" lon="5.45782">
        <ele>1358</ele>
        <time>2010-05-07T21:11:28Z</time>
      </trkpt>
      <trkpt lat="44.93634" lon="5.45643">
        <ele>1362.2</ele>
        <time>2010-05-07T21:11:39Z</time>
      </trkpt>
      <trkpt lat="44.9352" lon="5.45599">
        <ele>1369.3</ele>
        <time>2010-05-07T21:11:52Z</time>
      </trkpt>
      <trkpt lat="44.93459" lon="5.45679">
        <ele>1368.8</ele>
        <time>2010-05-07T21:12:01Z</time>
      </trkpt>
      <trkpt lat="44.93373" lon="5.45674">
        <ele>1372.7</ele>
        <time>2010-05-07T21:12:11Z</time>
      </trkpt>
      <trkpt lat="44.93355" lon="5.45623">
        <ele>1375.7</ele>
        <time>2010-05-07T21:12:15Z</time>
      </trkpt>
      <trkpt lat="44.9341" lon="5.45436">
        <ele>1383.7</ele>
        <time>2010-05-07T21:12:31Z</time>
      </trkpt>
      <trkpt lat="44.93391" lon="5.45287">
        <ele>1393.3</ele>
        <time>2010-05-07T21:12:43Z</time>
      </trkpt>
      <trkpt lat="44.93355" lon="5.45521">
        <ele>1381.5</ele>
        <time>2010-05-07T21:13:02Z</time>
      </trkpt>
      <trkpt lat="44.93303" lon="5.45601">
        <ele>1376.2</ele>
        <time>2010-05-07T21:13:10Z</time>
      </trkpt>
      <trkpt lat="44.93254" lon="5.45598">
        <ele>1375.6</ele>
        <time>2010-05-07T21:13:16Z</time>
      </trkpt>
      <trkpt lat="44.9322" lon="5.45638">
        <ele>1373.3</ele>
        <time>2010-05-07T21:13:21Z</time>
      </trkpt>
      <trkpt lat="44.93181" lon="5.45641">
        <ele>1372.7</ele>
        <time>2010-05-07T21:13:25Z</time>
      </trkpt>
      <trkpt lat="44.93058" lon="5.45814">
        <ele>1365</ele>
        <time>2010-05-07T21:13:44Z</time>
      </trkpt>
      <trkpt lat="44.92981" lon="5.45842">
        <ele>1364.1</ele>
        <time>2010-05-07T21:13:53Z</time>
      </trkpt>
      <trkpt lat="44.93025" lon="5.45937">
        <ele>1361.2</ele>
        <time>2010-05-07T21:14:02Z</time>
      </trkpt>
      <trkpt lat="44.92964" lon="5.45998">
        <ele>1366.7</ele>
        <time>2010-05-07T21:14:10Z</time>
      </trkpt>
      <trkpt lat="44.92982" lon="5.4617">
        <ele>1380.9</ele>
        <time>2010-05-07T21:14:24Z</time>
      </trkpt>
      <trkpt lat="44.92939" lon="5.46163">
        <ele>1380</ele>
        <time>2010-05-07T21:14:29Z</time>
      </trkpt>
      <trkpt lat="44.92933" lon="5.46255">
        <ele>1387.3</ele>
        <time>2010-05-07T21:14:36Z</time>
      </trkpt>
      <trkpt lat="44.92876" lon="5.46317">
        <ele>1391.3</ele>
        <time>2010-05-07T21:14:44Z</time>
      </trkpt>
      <trkpt lat="44.92857" lon="5.46293">
        <ele>1389.2</ele>
        <time>2010-05-07T21:14:47Z</time>
      </trkpt>
      <trkpt lat="44.92862" lon="5.46219">
        <ele>1383.7</ele>
        <time>2010-05-07T21:14:53Z</time>
      </trkpt>
      <trkpt lat="44.9288" lon="5.46072">
        <ele>1372.7</ele>
        <time>2010-05-07T21:15:04Z</time>
      </trkpt>
      <trkpt lat="44.92842" lon="5.46107">
        <ele>1375.2</ele>
        <time>2010-05-07T21:15:09Z</time>
      </trkpt>
      <trkpt lat="44.92796" lon="5.46109">
        <ele>1375.3</ele>
        <time>2010-05-07T21:15:15Z</time>
      </trkpt>
      <trkpt lat="44.92803" lon="5.46211">
        <ele>1382.6</ele>
        <time>2010-05-07T21:15:23Z</time>
      </trkpt>
      <trkpt lat="44.92759" lon="5.46255">
        <ele>1385.1</ele>
        <time>2010-05-07T21:15:29Z</time>
      </trkpt>
      <trkpt lat="44.92694" lon="5.46136">
        <ele>1376.7</ele>
        <time>2010-05-07T21:15:40Z</time>
      </trkpt>
      <trkpt lat="44.92644" lon="5.46059">
        <ele>1371.7</ele>
        <time>2010-05-07T21:15:49Z</time>
      </trkpt>
      <trkpt lat="44.9266" lon="5.46171">
        <ele>1378.7</ele>
        <time>2010-05-07T21:15:58Z</time>
      </trkpt>
      <trkpt lat="44.92579" lon="5.46259">
        <ele>1383.1</ele>
        <time>2010-05-07T21:16:09Z</time>
      </trkpt>
      <trkpt lat="44.92567" lon="5.46193">
        <ele>1379.3</ele>
        <time>2010-05-07T21:16:14Z</time>
      </trkpt>
      <trkpt lat="44.92531" lon="5.46196">
        <ele>1379.1</ele>
        <time>2010-05-07T21:16:18Z</time>
      </trkpt>
      <trkpt lat="44.92478" lon="5.46096">
        <ele>1373.3</ele>
        <time>2010-05-07T21:16:28Z</time>
      </trkpt>
      <trkpt lat="44.92439" lon="5.46098">
        <ele>1373.1</ele>
        <time>2010-05-07T21:16:33Z</time>
      </trkpt>
      <trkpt lat="44.92389" lon="5.46109">
        <ele>1373.2</ele>
        <time>2010-05-07T21:16:38Z</time>
      </trkpt>
      <trkpt lat="44.92317" lon="5.46115">
        <ele>1372.8</ele>
        <time>2010-05-07T21:16:46Z</time>
      </trkpt>
      <trkpt lat="44.92285" lon="5.46067">
        <ele>1370.4</ele>
        <time>2010-05-07T21:16:51Z</time>
      </trkpt>
      <trkpt lat="44.92158" lon="5.46147">
        <ele>1372.6</ele>
        <time>2010-05-07T21:17:07Z</time>
      </trkpt>
      <trkpt lat="44.92134" lon="5.46086">
        <ele>1370.1</ele>
        <time>2010-05-07T21:17:12Z</time>
      </trkpt>
      <trkpt lat="44.92099" lon="5.46153">
        <ele>1372.2</ele>
        <time>2010-05-07T21:17:19Z</time>
      </trkpt>
      <trkpt lat="44.92055" lon="5.46317">
        <ele>1377.2</ele>
        <time>2010-05-07T21:17:33Z</time>
      </trkpt>
      <trkpt lat="44.92" lon="5.46272">
        <ele>1374.8</ele>
        <time>2010-05-07T21:17:40Z</time>
      </trkpt>
      <trkpt lat="44.91967" lon="5.46312">
        <ele>1375.5</ele>
        <time>2010-05-07T21:17:45Z</time>
      </trkpt>
      <trkpt lat="44.91901" lon="5.46304">
        <ele>1374.1</ele>
        <time>2010-05-07T21:17:52Z</time>
      </trkpt>
      <trkpt lat="44.91797" lon="5.4639">
        <ele>1374.2</ele>
        <time>2010-05-07T21:18:05Z</time>
      </trkpt>
      <trkpt lat="44.91765" lon="5.46481">
        <ele>1375.4</ele>
        <time>2010-05-07T21:18:13Z</time>
      </trkpt>
      <trkpt lat="44.91729" lon="5.46484">
        <ele>1374.6</ele>
        <time>2010-05-07T21:18:17Z</time>
      </trkpt>
      <trkpt lat="44.9172" lon="5.46442">
        <ele>1373.6</ele>
        <time>2010-05-07T21:18:21Z</time>
      </trkpt>
      <trkpt lat="44.9174" lon="5.46415">
        <ele>1373.5</ele>
        <time>2010-05-07T21:18:24Z</time>
      </trkpt>
      <trkpt lat="44.91713" lon="5.46335">
        <ele>1371.4</ele>
        <time>2010-05-07T21:18:31Z</time>
      </trkpt>
      <trkpt lat="44.91652" lon="5.46396">
        <ele>1375</ele>
        <time>2010-05-07T21:18:39Z</time>
      </trkpt>
      <trkpt lat="44.91604" lon="5.46463">
        <ele>1378.3</ele>
        <time>2010-05-07T21:18:47Z</time>
      </trkpt>
      <trkpt lat="44.91551" lon="5.46488">
        <ele>1381.1</ele>
        <time>2010-05-07T21:18:53Z</time>
      </trkpt>
      <trkpt lat="44.91497" lon="5.46438">
        <ele>1383.4</ele>
        <time>2010-05-07T21:19:00Z</time>
      </trkpt>
      <trkpt lat="44.91459" lon="5.46478">
        <ele>1385.4</ele>
        <time>2010-05-07T21:19:05Z</time>
      </trkpt>
      <trkpt lat="44.91394" lon="5.4659">
        <ele>1388.4</ele>
        <time>2010-05-07T21:19:17Z</time>
      </trkpt>
      <trkpt lat="44.91333" lon="5.46554">
        <ele>1391.1</ele>
        <time>2010-05-07T21:19:24Z</time>
      </trkpt>
      <trkpt lat="44.91276" lon="5.46578">
        <ele>1393.4</ele>
        <time>2010-05-07T21:19:31Z</time>
      </trkpt>
      <trkpt lat="44.91222" lon="5.46515">
        <ele>1396.4</ele>
        <time>2010-05-07T21:19:39Z</time>
      </trkpt>
      <trkpt lat="44.91184" lon="5.46578">
        <ele>1397.2</ele>
        <time>2010-05-07T21:19:45Z</time>
      </trkpt>
      <trkpt lat="44.91146" lon="5.46645">
        <ele>1397.7</ele>
        <time>2010-05-07T21:19:52Z</time>
      </trkpt>
      <trkpt lat="44.91052" lon="5.46598">
        <ele>1402.2</ele>
        <time>2010-05-07T21:20:03Z</time>
      </trkpt>
      <trkpt lat="44.91061" lon="5.46516">
        <ele>1403.7</ele>
        <time>2010-05-07T21:20:10Z</time>
      </trkpt>
      <trkpt lat="44.90957" lon="5.46598">
        <ele>1406.1</ele>
        <time>2010-05-07T21:20:23Z</time>
      </trkpt>
      <trkpt lat="44.90772" lon="5.46647">
        <ele>1413.9</ele>
        <time>2010-05-07T21:20:44Z</time>
      </trkpt>
      <trkpt lat="44.90682" lon="5.46582">
        <ele>1421.1</ele>
        <time>2010-05-07T21:20:55Z</time>
      </trkpt>
      <trkpt lat="44.90622" lon="5.46597">
        <ele>1424.2</ele>
        <time>2010-05-07T21:21:02Z</time>
      </trkpt>
      <trkpt lat="44.90555" lon="5.4652">
        <ele>1430</ele>
        <time>2010-05-07T21:21:11Z</time>
      </trkpt>
      <trkpt lat="44.90518" lon="5.4655">
        <ele>1431.4</ele>
        <time>2010-05-07T21:21:16Z</time>
      </trkpt>
      <trkpt lat="44.90477" lon="5.46511">
        <ele>1434.6</ele>
        <time>2010-05-07T21:21:22Z</time>
      </trkpt>
      <trkpt lat="44.90423" lon="5.46558">
        <ele>1436.7</ele>
        <time>2010-05-07T21:21:29Z</time>
      </trkpt>
      <trkpt lat="44.90359" lon="5.46509">
        <ele>1441.3</ele>
        <time>2010-05-07T21:21:37Z</time>
      </trkpt>
      <trkpt lat="44.90292" lon="5.46528">
        <ele>1444.7</ele>
        <time>2010-05-07T21:21:44Z</time>
      </trkpt>
      <trkpt lat="44.90188" lon="5.46513">
        <ele>1450.8</ele>
        <time>2010-05-07T21:21:56Z</time>
      </trkpt>
      <trkpt lat="44.90164" lon="5.46558">
        <ele>1451.6</ele>
        <time>2010-05-07T21:22:01Z</time>
      </trkpt>
      <trkpt lat="44.90079" lon="5.46544">
        <ele>1456.7</ele>
        <time>2010-05-07T21:22:10Z</time>
      </trkpt>
      <trkpt lat="44.90031" lon="5.46717">
        <ele>1457.7</ele>
        <time>2010-05-07T21:22:25Z</time>
      </trkpt>
      <trkpt lat="44.89977" lon="5.46884">
        <ele>1460.2</ele>
        <time>2010-05-07T21:22:39Z</time>
      </trkpt>
      <trkpt lat="44.9001" lon="5.46988">
        <ele>1458</ele>
        <time>2010-05-07T21:22:48Z</time>
      </trkpt>
      <trkpt lat="44.90016" lon="5.47025">
        <ele>1457.7</ele>
        <time>2010-05-07T21:22:51Z</time>
      </trkpt>
      <trkpt lat="44.89924" lon="5.47122">
        <ele>1461.6</ele>
        <time>2010-05-07T21:23:04Z</time>
      </trkpt>
      <trkpt lat="44.89874" lon="5.47258">
        <ele>1462.7</ele>
        <time>2010-05-07T21:23:16Z</time>
      </trkpt>
      <trkpt lat="44.89888" lon="5.47341">
        <ele>1461.4</ele>
        <time>2010-05-07T21:23:23Z</time>
      </trkpt>
      <trkpt lat="44.8978" lon="5.47238">
        <ele>1466.6</ele>
        <time>2010-05-07T21:23:37Z</time>
      </trkpt>
      <trkpt lat="44.8974" lon="5.47259">
        <ele>1467.9</ele>
        <time>2010-05-07T21:23:42Z</time>
      </trkpt>
      <trkpt lat="44.89739" lon="5.47412">
        <ele>1465.4</ele>
        <time>2010-05-07T21:23:54Z</time>
      </trkpt>
      <trkpt lat="44.89683" lon="5.47519">
        <ele>1465.1</ele>
        <time>2010-05-07T21:24:04Z</time>
      </trkpt>
      <trkpt lat="44.8965" lon="5.47518">
        <ele>1466</ele>
        <time>2010-05-07T21:24:08Z</time>
      </trkpt>
      <trkpt lat="44.89662" lon="5.47453">
        <ele>1467</ele>
        <time>2010-05-07T21:24:13Z</time>
      </trkpt>
      <trkpt lat="44.89553" lon="5.47373">
        <ele>1472.2</ele>
        <time>2010-05-07T21:24:27Z</time>
      </trkpt>
      <trkpt lat="44.8947" lon="5.47512">
        <ele>1470.8</ele>
        <time>2010-05-07T21:24:41Z</time>
      </trkpt>
      <trkpt lat="44.89414" lon="5.475">
        <ele>1472.7</ele>
        <time>2010-05-07T21:24:48Z</time>
      </trkpt>
      <trkpt lat="44.89382" lon="5.47364">
        <ele>1478.2</ele>
        <time>2010-05-07T21:24:59Z</time>
      </trkpt>
      <trkpt lat="44.8937" lon="5.47215">
        <ele>1483.7</ele>
        <time>2010-05-07T21:25:11Z</time>
      </trkpt>
      <trkpt lat="44.89402" lon="5.47014">
        <ele>1489.1</ele>
        <time>2010-05-07T21:25:27Z</time>
      </trkpt>
      <trkpt lat="44.8933" lon="5.46899">
        <ele>1497</ele>
        <time>2010-05-07T21:25:39Z</time>
      </trkpt>
      <trkpt lat="44.89274" lon="5.47007">
        <ele>1495.9</ele>
        <time>2010-05-07T21:25:49Z</time>
      </trkpt>
      <trkpt lat="44.89222" lon="5.4699">
        <ele>1499.3</ele>
        <time>2010-05-07T21:25:55Z</time>
      </trkpt>
      <trkpt lat="44.89204" lon="5.46809">
        <ele>1508</ele>
        <time>2010-05-07T21:26:10Z</time>
      </trkpt>
      <trkpt lat="44.89138" lon="5.46814">
        <ele>1505.7</ele>
        <time>2010-05-07T21:26:17Z</time>
      </trkpt>
      <trkpt lat="44.89079" lon="5.46705">
        <ele>1503</ele>
        <time>2010-05-07T21:26:28Z</time>
      </trkpt>
      <trkpt lat="44.89028" lon="5.46545">
        <ele>1495.7</ele>
        <time>2010-05-07T21:26:42Z</time>
      </trkpt>
      <trkpt lat="44.8893" lon="5.46405">
        <ele>1486.9</ele>
        <time>2010-05-07T21:26:57Z</time>
      </trkpt>
      <trkpt lat="44.88885" lon="5.46371">
        <ele>1483.8</ele>
        <time>2010-05-07T21:27:03Z</time>
      </trkpt>
      <trkpt lat="44.88873" lon="5.46208">
        <ele>1477.9</ele>
        <time>2010-05-07T21:27:16Z</time>
      </trkpt>
      <trkpt lat="44.88917" lon="5.46174">
        <ele>1478.7</ele>
        <time>2010-05-07T21:27:21Z</time>
      </trkpt>
      <trkpt lat="44.8891" lon="5.46049">
        <ele>1474.2</ele>
        <time>2010-05-07T21:27:31Z</time>
      </trkpt>
      <trkpt lat="44.88979" lon="5.45937">
        <ele>1473.7</ele>
        <time>2010-05-07T21:27:43Z</time>
      </trkpt>
      <trkpt lat="44.88987" lon="5.45794">
        <ele>1469.7</ele>
        <time>2010-05-07T21:27:54Z</time>
      </trkpt>
      <trkpt lat="44.89099" lon="5.45657">
        <ele>1471.2</ele>
        <time>2010-05-07T21:28:11Z</time>
      </trkpt>
      <trkpt lat="44.8907" lon="5.45619">
        <ele>1468.7</ele>
        <time>2010-05-07T21:28:15Z</time>
      </trkpt>
      <trkpt lat="44.89117" lon="5.45603">
        <ele>1470.6</ele>
        <time>2010-05-07T21:28:20Z</time>
      </trkpt>
      <trkpt lat="44.89086" lon="5.45537">
        <ele>1467.1</ele>
        <time>2010-05-07T21:28:27Z</time>
      </trkpt>
      <trkpt lat="44.89086" lon="5.45412">
        <ele>1463.4</ele>
        <time>2010-05-07T21:28:36Z</time>
      </trkpt>
      <trkpt lat="44.89022" lon="5.45473">
        <ele>1461.8</ele>
        <time>2010-05-07T21:28:45Z</time>
      </trkpt>
      <trkpt lat="44.88916" lon="5.45504">
        <ele>1457.2</ele>
        <time>2010-05-07T21:28:57Z</time>
      </trkpt>
      <trkpt lat="44.88845" lon="5.45463">
        <ele>1452.2</ele>
        <time>2010-05-07T21:29:06Z</time>
      </trkpt>
      <trkpt lat="44.88816" lon="5.45323">
        <ele>1446.1</ele>
        <time>2010-05-07T21:29:17Z</time>
      </trkpt>
      <trkpt lat="44.88873" lon="5.454">
        <ele>1451.7</ele>
        <time>2010-05-07T21:29:26Z</time>
      </trkpt>
      <trkpt lat="44.88931" lon="5.45422">
        <ele>1455.5</ele>
        <time>2010-05-07T21:29:33Z</time>
      </trkpt>
      <trkpt lat="44.88953" lon="5.45363">
        <ele>1454.8</ele>
        <time>2010-05-07T21:29:38Z</time>
      </trkpt>
      <trkpt lat="44.88951" lon="5.45293">
        <ele>1452.6</ele>
        <time>2010-05-07T21:29:43Z</time>
      </trkpt>
      <trkpt lat="44.88992" lon="5.45037">
        <ele>1443.6</ele>
        <time>2010-05-07T21:30:04Z</time>
      </trkpt>
      <trkpt lat="44.88936" lon="5.45039">
        <ele>1440.9</ele>
        <time>2010-05-07T21:30:10Z</time>
      </trkpt>
      <trkpt lat="44.88923" lon="5.44899">
        <ele>1429.5</ele>
        <time>2010-05-07T21:30:21Z</time>
      </trkpt>
      <trkpt lat="44.88878" lon="5.44883">
        <ele>1426.7</ele>
        <time>2010-05-07T21:30:26Z</time>
      </trkpt>
      <trkpt lat="44.88841" lon="5.44798">
        <ele>1419.6</ele>
        <time>2010-05-07T21:30:34Z</time>
      </trkpt>
      <trkpt lat="44.88776" lon="5.44753">
        <ele>1415.2</ele>
        <time>2010-05-07T21:30:42Z</time>
      </trkpt>
      <trkpt lat="44.8877" lon="5.44526">
        <ele>1401.3</ele>
        <time>2010-05-07T21:31:00Z</time>
      </trkpt>
      <trkpt lat="44.88718" lon="5.44481">
        <ele>1399.1</ele>
        <time>2010-05-07T21:31:07Z</time>
      </trkpt>
      <trkpt lat="44.88739" lon="5.44566">
        <ele>1403.8</ele>
        <time>2010-05-07T21:31:14Z</time>
      </trkpt>
      <trkpt lat="44.88583" lon="5.44488">
        <ele>1400.7</ele>
        <time>2010-05-07T21:31:32Z</time>
      </trkpt>
      <trkpt lat="44.88515" lon="5.44485">
        <ele>1401.3</ele>
        <time>2010-05-07T21:31:40Z</time>
      </trkpt>
      <trkpt lat="44.88455" lon="5.44404">
        <ele>1399.7</ele>
        <time>2010-05-07T21:31:49Z</time>
      </trkpt>
      <trkpt lat="44.88407" lon="5.44489">
        <ele>1402.4</ele>
        <time>2010-05-07T21:31:58Z</time>
      </trkpt>
      <trkpt lat="44.88302" lon="5.44529">
        <ele>1405.2</ele>
        <time>2010-05-07T21:32:10Z</time>
      </trkpt>
      <trkpt lat="44.88284" lon="5.44445">
        <ele>1404</ele>
        <time>2010-05-07T21:32:17Z</time>
      </trkpt>
      <trkpt lat="44.88161" lon="5.4442">
        <ele>1406.4</ele>
        <time>2010-05-07T21:32:31Z</time>
      </trkpt>
      <trkpt lat="44.88126" lon="5.4462">
        <ele>1411.9</ele>
        <time>2010-05-07T21:32:47Z</time>
      </trkpt>
      <trkpt lat="44.88059" lon="5.44667">
        <ele>1415</ele>
        <time>2010-05-07T21:32:55Z</time>
      </trkpt>
      <trkpt lat="44.88034" lon="5.44753">
        <ele>1418</ele>
        <time>2010-05-07T21:33:02Z</time>
      </trkpt>
      <trkpt lat="44.87991" lon="5.44764">
        <ele>1419.7</ele>
        <time>2010-05-07T21:33:07Z</time>
      </trkpt>
      <trkpt lat="44.87996" lon="5.44838">
        <ele>1421.6</ele>
        <time>2010-05-07T21:33:13Z</time>
      </trkpt>
      <trkpt lat="44.87946" lon="5.44853">
        <ele>1423.7</ele>
        <time>2010-05-07T21:33:19Z</time>
      </trkpt>
      <trkpt lat="44.87915" lon="5.45031">
        <ele>1430</ele>
        <time>2010-05-07T21:33:33Z</time>
      </trkpt>
      <trkpt lat="44.8786" lon="5.45028">
        <ele>1432.1</ele>
        <time>2010-05-07T21:33:39Z</time>
      </trkpt>
      <trkpt lat="44.87787" lon="5.45166">
        <ele>1439.8</ele>
        <time>2010-05-07T21:33:53Z</time>
      </trkpt>
      <trkpt lat="44.878" lon="5.45392">
        <ele>1447.6</ele>
        <time>2010-05-07T21:34:11Z</time>
      </trkpt>
      <trkpt lat="44.87676" lon="5.45748">
        <ele>1465.6</ele>
        <time>2010-05-07T21:34:42Z</time>
      </trkpt>
      <trkpt lat="44.87687" lon="5.45813">
        <ele>1467.6</ele>
        <time>2010-05-07T21:34:47Z</time>
      </trkpt>
      <trkpt lat="44.8761" lon="5.45887">
        <ele>1473.3</ele>
        <time>2010-05-07T21:34:58Z</time>
      </trkpt>
      <trkpt lat="44.87533" lon="5.46053">
        <ele>1478.9</ele>
        <time>2010-05-07T21:35:13Z</time>
      </trkpt>
      <trkpt lat="44.87325" lon="5.46486">
        <ele>1489.8</ele>
        <time>2010-05-07T21:35:55Z</time>
      </trkpt>
      <trkpt lat="44.8726" lon="5.46814">
        <ele>1494.5</ele>
        <time>2010-05-07T21:36:21Z</time>
      </trkpt>
      <trkpt lat="44.87149" lon="5.46931">
        <ele>1500.6</ele>
        <time>2010-05-07T21:36:37Z</time>
      </trkpt>
      <trkpt lat="44.87119" lon="5.47081">
        <ele>1504.4</ele>
        <time>2010-05-07T21:36:49Z</time>
      </trkpt>
      <trkpt lat="44.86994" lon="5.47221">
        <ele>1508</ele>
        <time>2010-05-07T21:37:07Z</time>
      </trkpt>
      <trkpt lat="44.86961" lon="5.47215">
        <ele>1508.1</ele>
        <time>2010-05-07T21:37:10Z</time>
      </trkpt>
      <trkpt lat="44.86906" lon="5.4734">
        <ele>1509.5</ele>
        <time>2010-05-07T21:37:22Z</time>
      </trkpt>
      <trkpt lat="44.8678" lon="5.47512">
        <ele>1509.3</ele>
        <time>2010-05-07T21:37:42Z</time>
      </trkpt>
      <trkpt lat="44.86708" lon="5.47556">
        <ele>1508.3</ele>
        <time>2010-05-07T21:37:50Z</time>
      </trkpt>
      <trkpt lat="44.8663" lon="5.47508">
        <ele>1509.7</ele>
        <time>2010-05-07T21:38:00Z</time>
      </trkpt>
      <trkpt lat="44.86589" lon="5.47509">
        <ele>1510.5</ele>
        <time>2010-05-07T21:38:04Z</time>
      </trkpt>
      <trkpt lat="44.86499" lon="5.47586">
        <ele>1511.9</ele>
        <time>2010-05-07T21:38:16Z</time>
      </trkpt>
      <trkpt lat="44.86407" lon="5.47575">
        <ele>1513.7</ele>
        <time>2010-05-07T21:38:26Z</time>
      </trkpt>
      <trkpt lat="44.86336" lon="5.47503">
        <ele>1515.1</ele>
        <time>2010-05-07T21:38:36Z</time>
      </trkpt>
      <trkpt lat="44.86248" lon="5.47516">
        <ele>1516.6</ele>
        <time>2010-05-07T21:38:46Z</time>
      </trkpt>
      <trkpt lat="44.86189" lon="5.47607">
        <ele>1518.1</ele>
        <time>2010-05-07T21:38:56Z</time>
      </trkpt>
      <trkpt lat="44.8611" lon="5.47599">
        <ele>1519.3</ele>
        <time>2010-05-07T21:39:04Z</time>
      </trkpt>
      <trkpt lat="44.86088" lon="5.47639">
        <ele>1521.2</ele>
        <time>2010-05-07T21:39:08Z</time>
      </trkpt>
      <trkpt lat="44.85993" lon="5.47681">
        <ele>1524.3</ele>
        <time>2010-05-07T21:39:19Z</time>
      </trkpt>
      <trkpt lat="44.8586" lon="5.477">
        <ele>1527</ele>
        <time>2010-05-07T21:39:34Z</time>
      </trkpt>
      <trkpt lat="44.85669" lon="5.47674">
        <ele>1534.3</ele>
        <time>2010-05-07T21:39:56Z</time>
      </trkpt>
      <trkpt lat="44.85562" lon="5.47783">
        <ele>1541.3</ele>
        <time>2010-05-07T21:40:10Z</time>
      </trkpt>
      <trkpt lat="44.85427" lon="5.47796">
        <ele>1547</ele>
        <time>2010-05-07T21:40:25Z</time>
      </trkpt>
      <trkpt lat="44.85372" lon="5.4784">
        <ele>1550.1</ele>
        <time>2010-05-07T21:40:32Z</time>
      </trkpt>
      <trkpt lat="44.85218" lon="5.47828">
        <ele>1556</ele>
        <time>2010-05-07T21:40:49Z</time>
      </trkpt>
      <trkpt lat="44.85143" lon="5.4788">
        <ele>1559.7</ele>
        <time>2010-05-07T21:40:59Z</time>
      </trkpt>
      <trkpt lat="44.85027" lon="5.47794">
        <ele>1563</ele>
        <time>2010-05-07T21:41:13Z</time>
      </trkpt>
      <trkpt lat="44.85005" lon="5.47892">
        <ele>1565.2</ele>
        <time>2010-05-07T21:41:21Z</time>
      </trkpt>
      <trkpt lat="44.84873" lon="5.4792">
        <ele>1570.6</ele>
        <time>2010-05-07T21:41:36Z</time>
      </trkpt>
      <trkpt lat="44.84826" lon="5.48">
        <ele>1573.3</ele>
        <time>2010-05-07T21:41:44Z</time>
      </trkpt>
      <trkpt lat="44.84699" lon="5.47993">
        <ele>1577.9</ele>
        <time>2010-05-07T21:41:59Z</time>
      </trkpt>
      <trkpt lat="44.84652" lon="5.4804">
        <ele>1580.2</ele>
        <time>2010-05-07T21:42:05Z</time>
      </trkpt>
      <trkpt lat="44.84587" lon="5.48036">
        <ele>1582.5</ele>
        <time>2010-05-07T21:42:12Z</time>
      </trkpt>
      <trkpt lat="44.84508" lon="5.48099">
        <ele>1586.1</ele>
        <time>2010-05-07T21:42:22Z</time>
      </trkpt>
      <trkpt lat="44.84422" lon="5.48127">
        <ele>1589.4</ele>
        <time>2010-05-07T21:42:32Z</time>
      </trkpt>
      <trkpt lat="44.84386" lon="5.48216">
        <ele>1591.6</ele>
        <time>2010-05-07T21:42:40Z</time>
      </trkpt>
      <trkpt lat="44.84367" lon="5.48376">
        <ele>1593.8</ele>
        <time>2010-05-07T21:42:53Z</time>
      </trkpt>
      <trkpt lat="44.8435" lon="5.48434">
        <ele>1594.9</ele>
        <time>2010-05-07T21:42:58Z</time>
      </trkpt>
      <trkpt lat="44.84179" lon="5.48351">
        <ele>1600.2</ele>
        <time>2010-05-07T21:43:18Z</time>
      </trkpt>
      <trkpt lat="44.84046" lon="5.48349">
        <ele>1606.4</ele>
        <time>2010-05-07T21:43:33Z</time>
      </trkpt>
      <trkpt lat="44.83835" lon="5.48211">
        <ele>1614.8</ele>
        <time>2010-05-07T21:43:59Z</time>
      </trkpt>
      <trkpt lat="44.83536" lon="5.48121">
        <ele>1627.5</ele>
        <time>2010-05-07T21:44:33Z</time>
      </trkpt>
      <trkpt lat="44.83347" lon="5.48184">
        <ele>1636</ele>
        <time>2010-05-07T21:44:54Z</time>
      </trkpt>
      <trkpt lat="44.83323" lon="5.48224">
        <ele>1636.5</ele>
        <time>2010-05-07T21:44:58Z</time>
      </trkpt>
      <trkpt lat="44.8331" lon="5.48167">
        <ele>1635.8</ele>
        <time>2010-05-07T21:45:03Z</time>
      </trkpt>
      <trkpt lat="44.83131" lon="5.48137">
        <ele>1635.8</ele>
        <time>2010-05-07T21:45:23Z</time>
      </trkpt>
      <trkpt lat="44.8304" lon="5.48486">
        <ele>1642</ele>
        <time>2010-05-07T21:45:53Z</time>
      </trkpt>
      <trkpt lat="44.82934" lon="5.48593">
        <ele>1649.8</ele>
        <time>2010-05-07T21:46:07Z</time>
      </trkpt>
      <trkpt lat="44.82859" lon="5.48647">
        <ele>1654</ele>
        <time>2010-05-07T21:46:16Z</time>
      </trkpt>
      <trkpt lat="44.828" lon="5.48671">
        <ele>1655.8</ele>
        <time>2010-05-07T21:46:23Z</time>
      </trkpt>
      <trkpt lat="44.82744" lon="5.486">
        <ele>1650.3</ele>
        <time>2010-05-07T21:46:32Z</time>
      </trkpt>
      <trkpt lat="44.82711" lon="5.48648">
        <ele>1654.1</ele>
        <time>2010-05-07T21:46:37Z</time>
      </trkpt>
      <trkpt lat="44.8268" lon="5.48615">
        <ele>1651.5</ele>
        <time>2010-05-07T21:46:41Z</time>
      </trkpt>
      <trkpt lat="44.82716" lon="5.48572">
        <ele>1648.1</ele>
        <time>2010-05-07T21:46:46Z</time>
      </trkpt>
      <trkpt lat="44.82701" lon="5.48309">
        <ele>1637</ele>
        <time>2010-05-07T21:47:07Z</time>
      </trkpt>
      <trkpt lat="44.8268" lon="5.48281">
        <ele>1636.9</ele>
        <time>2010-05-07T21:47:11Z</time>
      </trkpt>
      <trkpt lat="44.8276" lon="5.48159">
        <ele>1636.4</ele>
        <time>2010-05-07T21:47:24Z</time>
      </trkpt>
      <trkpt lat="44.82769" lon="5.48092">
        <ele>1636.1</ele>
        <time>2010-05-07T21:47:29Z</time>
      </trkpt>
      <trkpt lat="44.82882" lon="5.48049">
        <ele>1635.6</ele>
        <time>2010-05-07T21:47:42Z</time>
      </trkpt>
      <trkpt lat="44.82913" lon="5.47861">
        <ele>1634.4</ele>
        <time>2010-05-07T21:47:57Z</time>
      </trkpt>
      <trkpt lat="44.8291" lon="5.47748">
        <ele>1633.7</ele>
        <time>2010-05-07T21:48:06Z</time>
      </trkpt>
      <trkpt lat="44.82987" lon="5.47423">
        <ele>1633.2</ele>
        <time>2010-05-07T21:48:33Z</time>
      </trkpt>
      <trkpt lat="44.82942" lon="5.47294">
        <ele>1634.4</ele>
        <time>2010-05-07T21:48:45Z</time>
      </trkpt>
      <trkpt lat="44.83033" lon="5.47141">
        <ele>1634</ele>
        <time>2010-05-07T21:49:00Z</time>
      </trkpt>
      <trkpt lat="44.83005" lon="5.47008">
        <ele>1635.1</ele>
        <time>2010-05-07T21:49:11Z</time>
      </trkpt>
      <trkpt lat="44.83113" lon="5.46717">
        <ele>1629.1</ele>
        <time>2010-05-07T21:49:37Z</time>
      </trkpt>
      <trkpt lat="44.83135" lon="5.46506">
        <ele>1608.7</ele>
        <time>2010-05-07T21:49:54Z</time>
      </trkpt>
      <trkpt lat="44.83157" lon="5.46277">
        <ele>1588.4</ele>
        <time>2010-05-07T21:50:12Z</time>
      </trkpt>
      <trkpt lat="44.83267" lon="5.45908">
        <ele>1570.5</ele>
        <time>2010-05-07T21:50:44Z</time>
      </trkpt>
      <trkpt lat="44.83287" lon="5.4577">
        <ele>1563</ele>
        <time>2010-05-07T21:50:55Z</time>
      </trkpt>
      <trkpt lat="44.83213" lon="5.45544">
        <ele>1535.3</ele>
        <time>2010-05-07T21:51:14Z</time>
      </trkpt>
      <trkpt lat="44.83015" lon="5.45416">
        <ele>1495.2</ele>
        <time>2010-05-07T21:51:39Z</time>
      </trkpt>
      <trkpt lat="44.83015" lon="5.45303">
        <ele>1486.1</ele>
        <time>2010-05-07T21:51:48Z</time>
      </trkpt>
      <trkpt lat="44.82952" lon="5.45236">
        <ele>1470.9</ele>
        <time>2010-05-07T21:51:56Z</time>
      </trkpt>
      <trkpt lat="44.83081" lon="5.45">
        <ele>1486.8</ele>
        <time>2010-05-07T21:52:20Z</time>
      </trkpt>
      <trkpt lat="44.83126" lon="5.44885">
        <ele>1502.5</ele>
        <time>2010-05-07T21:52:30Z</time>
      </trkpt>
      <trkpt lat="44.83135" lon="5.44795">
        <ele>1510.5</ele>
        <time>2010-05-07T21:52:37Z</time>
      </trkpt>
      <trkpt lat="44.83183" lon="5.4469">
        <ele>1527.6</ele>
        <time>2010-05-07T21:52:47Z</time>
      </trkpt>
      <trkpt lat="44.83205" lon="5.44592">
        <ele>1539.5</ele>
        <time>2010-05-07T21:52:55Z</time>
      </trkpt>
      <trkpt lat="44.83174" lon="5.44549">
        <ele>1536.3</ele>
        <time>2010-05-07T21:53:00Z</time>
      </trkpt>
      <trkpt lat="44.83203" lon="5.44433">
        <ele>1551.4</ele>
        <time>2010-05-07T21:53:10Z</time>
      </trkpt>
      <trkpt lat="44.83176" lon="5.44247">
        <ele>1556.8</ele>
        <time>2010-05-07T21:53:25Z</time>
      </trkpt>
      <trkpt lat="44.83233" lon="5.44164">
        <ele>1565.4</ele>
        <time>2010-05-07T21:53:34Z</time>
      </trkpt>
      <trkpt lat="44.83222" lon="5.43988">
        <ele>1552.2</ele>
        <time>2010-05-07T21:53:48Z</time>
      </trkpt>
      <trkpt lat="44.83285" lon="5.43793">
        <ele>1556</ele>
        <time>2010-05-07T21:54:05Z</time>
      </trkpt>
      <trkpt lat="44.83233" lon="5.43722">
        <ele>1538.9</ele>
        <time>2010-05-07T21:54:13Z</time>
      </trkpt>
      <trkpt lat="44.83228" lon="5.43537">
        <ele>1526.7</ele>
        <time>2010-05-07T21:54:28Z</time>
      </trkpt>
      <trkpt lat="44.83075" lon="5.43262">
        <ele>1480.2</ele>
        <time>2010-05-07T21:54:55Z</time>
      </trkpt>
      <trkpt lat="44.83038" lon="5.43219">
        <ele>1471.2</ele>
        <time>2010-05-07T21:55:00Z</time>
      </trkpt>
      <trkpt lat="44.83048" lon="5.43107">
        <ele>1472.6</ele>
        <time>2010-05-07T21:55:09Z</time>
      </trkpt>
      <trkpt lat="44.82923" lon="5.42969">
        <ele>1446.4</ele>
        <time>2010-05-07T21:55:27Z</time>
      </trkpt>
      <trkpt lat="44.82821" lon="5.4295">
        <ele>1426</ele>
        <time>2010-05-07T21:55:38Z</time>
      </trkpt>
      <trkpt lat="44.82757" lon="5.42811">
        <ele>1416.6</ele>
        <time>2010-05-07T21:55:51Z</time>
      </trkpt>
      <trkpt lat="44.82769" lon="5.42591">
        <ele>1424.2</ele>
        <time>2010-05-07T21:56:09Z</time>
      </trkpt>
      <trkpt lat="44.82721" lon="5.42321">
        <ele>1441.8</ele>
        <time>2010-05-07T21:56:31Z</time>
      </trkpt>
      <trkpt lat="44.82677" lon="5.42108">
        <ele>1458.9</ele>
        <time>2010-05-07T21:56:48Z</time>
      </trkpt>
      <trkpt lat="44.82681" lon="5.41805">
        <ele>1489.9</ele>
        <time>2010-05-07T21:57:12Z</time>
      </trkpt>
      <trkpt lat="44.82791" lon="5.41615">
        <ele>1449</ele>
        <time>2010-05-07T21:57:32Z</time>
      </trkpt>
      <trkpt lat="44.83172" lon="5.41425">
        <ele>1430.4</ele>
        <time>2010-05-07T21:58:16Z</time>
      </trkpt>
      <trkpt lat="44.832" lon="5.41313">
        <ele>1414.3</ele>
        <time>2010-05-07T21:58:26Z</time>
      </trkpt>
      <trkpt lat="44.83191" lon="5.41219">
        <ele>1396.7</ele>
        <time>2010-05-07T21:58:33Z</time>
      </trkpt>
      <trkpt lat="44.83281" lon="5.41199">
        <ele>1408.5</ele>
        <time>2010-05-07T21:58:43Z</time>
      </trkpt>
      <trkpt lat="44.83274" lon="5.41075">
        <ele>1389.1</ele>
        <time>2010-05-07T21:58:53Z</time>
      </trkpt>
      <trkpt lat="44.83236" lon="5.41004">
        <ele>1369.7</ele>
        <time>2010-05-07T21:59:00Z</time>
      </trkpt>
      <trkpt lat="44.83082" lon="5.40791">
        <ele>1275.1</ele>
        <time>2010-05-07T21:59:24Z</time>
      </trkpt>
      <trkpt lat="44.83127" lon="5.40731">
        <ele>1270.2</ele>
        <time>2010-05-07T21:59:31Z</time>
      </trkpt>
      <trkpt lat="44.8332" lon="5.40698">
        <ele>1324.4</ele>
        <time>2010-05-07T21:59:53Z</time>
      </trkpt>
      <trkpt lat="44.83432" lon="5.4071">
        <ele>1341.8</ele>
        <time>2010-05-07T22:00:05Z</time>
      </trkpt>
      <trkpt lat="44.83618" lon="5.40686">
        <ele>1337.9</ele>
        <time>2010-05-07T22:00:26Z</time>
      </trkpt>
      <trkpt lat="44.83828" lon="5.40623">
        <ele>1337.1</ele>
        <time>2010-05-07T22:00:50Z</time>
      </trkpt>
      <trkpt lat="44.83879" lon="5.40637">
        <ele>1338.7</ele>
        <time>2010-05-07T22:00:56Z</time>
      </trkpt>
      <trkpt lat="44.83929" lon="5.40591">
        <ele>1340.8</ele>
        <time>2010-05-07T22:01:02Z</time>
      </trkpt>
      <trkpt lat="44.84055" lon="5.40615">
        <ele>1344.6</ele>
        <time>2010-05-07T22:01:16Z</time>
      </trkpt>
      <trkpt lat="44.84195" lon="5.40525">
        <ele>1361</ele>
        <time>2010-05-07T22:01:34Z</time>
      </trkpt>
      <trkpt lat="44.84365" lon="5.4048">
        <ele>1345.9</ele>
        <time>2010-05-07T22:01:53Z</time>
      </trkpt>
      <trkpt lat="44.84484" lon="5.40409">
        <ele>1342.9</ele>
        <time>2010-05-07T22:02:07Z</time>
      </trkpt>
      <trkpt lat="44.84763" lon="5.40281">
        <ele>1336.8</ele>
        <time>2010-05-07T22:02:40Z</time>
      </trkpt>
      <trkpt lat="44.8486" lon="5.40315">
        <ele>1319.4</ele>
        <time>2010-05-07T22:02:51Z</time>
      </trkpt>
      <trkpt lat="44.84932" lon="5.4029">
        <ele>1317.6</ele>
        <time>2010-05-07T22:02:59Z</time>
      </trkpt>
      <trkpt lat="44.85042" lon="5.40316">
        <ele>1300.5</ele>
        <time>2010-05-07T22:03:12Z</time>
      </trkpt>
      <trkpt lat="44.85173" lon="5.40292">
        <ele>1302.4</ele>
        <time>2010-05-07T22:03:26Z</time>
      </trkpt>
      <trkpt lat="44.85275" lon="5.40228">
        <ele>1317</ele>
        <time>2010-05-07T22:03:39Z</time>
      </trkpt>
      <trkpt lat="44.85403" lon="5.40264">
        <ele>1303.4</ele>
        <time>2010-05-07T22:03:53Z</time>
      </trkpt>
      <trkpt lat="44.8557" lon="5.4018">
        <ele>1325.4</ele>
        <time>2010-05-07T22:04:13Z</time>
      </trkpt>
      <trkpt lat="44.85933" lon="5.40221">
        <ele>1304.5</ele>
        <time>2010-05-07T22:04:53Z</time>
      </trkpt>
      <trkpt lat="44.8603" lon="5.40216">
        <ele>1305.1</ele>
        <time>2010-05-07T22:05:04Z</time>
      </trkpt>
      <trkpt lat="44.86112" lon="5.40273">
        <ele>1285.1</ele>
        <time>2010-05-07T22:05:14Z</time>
      </trkpt>
      <trkpt lat="44.86368" lon="5.40365">
        <ele>1256</ele>
        <time>2010-05-07T22:05:44Z</time>
      </trkpt>
      <trkpt lat="44.86842" lon="5.40518">
        <ele>1212.2</ele>
        <time>2010-05-07T22:06:38Z</time>
      </trkpt>
      <trkpt lat="44.87014" lon="5.40627">
        <ele>1190</ele>
        <time>2010-05-07T22:06:59Z</time>
      </trkpt>
      <trkpt lat="44.87175" lon="5.40693">
        <ele>1184.6</ele>
        <time>2010-05-07T22:07:17Z</time>
      </trkpt>
      <trkpt lat="44.87247" lon="5.40677">
        <ele>1187.7</ele>
        <time>2010-05-07T22:07:26Z</time>
      </trkpt>
      <trkpt lat="44.87244" lon="5.40445">
        <ele>1203.2</ele>
        <time>2010-05-07T22:07:44Z</time>
      </trkpt>
      <trkpt lat="44.87175" lon="5.40288">
        <ele>1221.6</ele>
        <time>2010-05-07T22:07:58Z</time>
      </trkpt>
      <trkpt lat="44.8694" lon="5.40082">
        <ele>1280.5</ele>
        <time>2010-05-07T22:08:29Z</time>
      </trkpt>
      <trkpt lat="44.86903" lon="5.39953">
        <ele>1266.2</ele>
        <time>2010-05-07T22:08:40Z</time>
      </trkpt>
      <trkpt lat="44.86782" lon="5.39764">
        <ele>1252.8</ele>
        <time>2010-05-07T22:09:00Z</time>
      </trkpt>
      <trkpt lat="44.86693" lon="5.39657">
        <ele>1245.2</ele>
        <time>2010-05-07T22:09:13Z</time>
      </trkpt>
      <trkpt lat="44.86493" lon="5.39526">
        <ele>1248.1</ele>
        <time>2010-05-07T22:09:38Z</time>
      </trkpt>
      <trkpt lat="44.85998" lon="5.39367">
        <ele>1307.8</ele>
        <time>2010-05-07T22:10:34Z</time>
      </trkpt>
      <trkpt lat="44.85695" lon="5.39225">
        <ele>1358.6</ele>
        <time>2010-05-07T22:11:10Z</time>
      </trkpt>
      <trkpt lat="44.85583" lon="5.39135">
        <ele>1366.5</ele>
        <time>2010-05-07T22:11:24Z</time>
      </trkpt>
      <trkpt lat="44.85109" lon="5.38793">
        <ele>1393.6</ele>
        <time>2010-05-07T22:12:23Z</time>
      </trkpt>
      <trkpt lat="44.84769" lon="5.38784">
        <ele>1407.6</ele>
        <time>2010-05-07T22:13:01Z</time>
      </trkpt>
      <trkpt lat="44.84639" lon="5.3869">
        <ele>1398.7</ele>
        <time>2010-05-07T22:13:17Z</time>
      </trkpt>
      <trkpt lat="44.84526" lon="5.38561">
        <ele>1393.5</ele>
        <time>2010-05-07T22:13:33Z</time>
      </trkpt>
      <trkpt lat="44.84376" lon="5.3863">
        <ele>1406.2</ele>
        <time>2010-05-07T22:13:51Z</time>
      </trkpt>
      <trkpt lat="44.84462" lon="5.38499">
        <ele>1395</ele>
        <time>2010-05-07T22:14:05Z</time>
      </trkpt>
      <trkpt lat="44.84493" lon="5.38385">
        <ele>1383.5</ele>
        <time>2010-05-07T22:14:15Z</time>
      </trkpt>
      <trkpt lat="44.84439" lon="5.38284">
        <ele>1379.5</ele>
        <time>2010-05-07T22:14:25Z</time>
      </trkpt>
      <trkpt lat="44.84398" lon="5.38234">
        <ele>1379.1</ele>
        <time>2010-05-07T22:14:31Z</time>
      </trkpt>
      <trkpt lat="44.84447" lon="5.38094">
        <ele>1359.3</ele>
        <time>2010-05-07T22:14:43Z</time>
      </trkpt>
      <trkpt lat="44.84516" lon="5.38052">
        <ele>1347.1</ele>
        <time>2010-05-07T22:14:51Z</time>
      </trkpt>
      <trkpt lat="44.84563" lon="5.38073">
        <ele>1343.9</ele>
        <time>2010-05-07T22:14:57Z</time>
      </trkpt>
      <trkpt lat="44.84566" lon="5.38002">
        <ele>1336.4</ele>
        <time>2010-05-07T22:15:02Z</time>
      </trkpt>
      <trkpt lat="44.8448" lon="5.37966">
        <ele>1342.6</ele>
        <time>2010-05-07T22:15:12Z</time>
      </trkpt>
      <trkpt lat="44.84391" lon="5.37836">
        <ele>1339.8</ele>
        <time>2010-05-07T22:15:26Z</time>
      </trkpt>
      <trkpt lat="44.84229" lon="5.37695">
        <ele>1344.6</ele>
        <time>2010-05-07T22:15:48Z</time>
      </trkpt>
      <trkpt lat="44.8405" lon="5.37601">
        <ele>1360.5</ele>
        <time>2010-05-07T22:16:09Z</time>
      </trkpt>
      <trkpt lat="44.83817" lon="5.37502">
        <ele>1380.5</ele>
        <time>2010-05-07T22:16:36Z</time>
      </trkpt>
      <trkpt lat="44.8348" lon="5.37346">
        <ele>1399.6</ele>
        <time>2010-05-07T22:17:15Z</time>
      </trkpt>
      <trkpt lat="44.83307" lon="5.37241">
        <ele>1393.1</ele>
        <time>2010-05-07T22:17:36Z</time>
      </trkpt>
      <trkpt lat="44.83123" lon="5.36938">
        <ele>1357.8</ele>
        <time>2010-05-07T22:18:08Z</time>
      </trkpt>
      <trkpt lat="44.83017" lon="5.36721">
        <ele>1349.7</ele>
        <time>2010-05-07T22:18:29Z</time>
      </trkpt>
      <trkpt lat="44.83126" lon="5.36679">
        <ele>1331.5</ele>
        <time>2010-05-07T22:18:41Z</time>
      </trkpt>
      <trkpt lat="44.83232" lon="5.36673">
        <ele>1319.1</ele>
        <time>2010-05-07T22:18:53Z</time>
      </trkpt>
      <trkpt lat="44.83365" lon="5.36521">
        <ele>1304</ele>
        <time>2010-05-07T22:19:12Z</time>
      </trkpt>
      <trkpt lat="44.83463" lon="5.36272">
        <ele>1299.2</ele>
        <time>2010-05-07T22:19:34Z</time>
      </trkpt>
      <trkpt lat="44.83576" lon="5.36133">
        <ele>1295.4</ele>
        <time>2010-05-07T22:19:51Z</time>
      </trkpt>
      <trkpt lat="44.83578" lon="5.36006">
        <ele>1297.1</ele>
        <time>2010-05-07T22:20:01Z</time>
      </trkpt>
      <trkpt lat="44.83609" lon="5.35871">
        <ele>1302.4</ele>
        <time>2010-05-07T22:20:12Z</time>
      </trkpt>
      <trkpt lat="44.83567" lon="5.3581">
        <ele>1309.6</ele>
        <time>2010-05-07T22:20:19Z</time>
      </trkpt>
      <trkpt lat="44.83461" lon="5.35909">
        <ele>1303.2</ele>
        <time>2010-05-07T22:20:33Z</time>
      </trkpt>
      <trkpt lat="44.83408" lon="5.35856">
        <ele>1310.2</ele>
        <time>2010-05-07T22:20:40Z</time>
      </trkpt>
      <trkpt lat="44.83451" lon="5.35749">
        <ele>1319.7</ele>
        <time>2010-05-07T22:20:50Z</time>
      </trkpt>
      <trkpt lat="44.83515" lon="5.35589">
        <ele>1333.1</ele>
        <time>2010-05-07T22:21:05Z</time>
      </trkpt>
      <trkpt lat="44.83632" lon="5.3545">
        <ele>1340.4</ele>
        <time>2010-05-07T22:21:22Z</time>
      </trkpt>
      <trkpt lat="44.83644" lon="5.35209">
        <ele>1361.7</ele>
        <time>2010-05-07T22:21:41Z</time>
      </trkpt>
      <trkpt lat="44.83644" lon="5.34953">
        <ele>1377.7</ele>
        <time>2010-05-07T22:22:01Z</time>
      </trkpt>
      <trkpt lat="44.83629" lon="5.35029">
        <ele>1375.9</ele>
        <time>2010-05-07T22:22:07Z</time>
      </trkpt>
      <trkpt lat="44.83632" lon="5.35223">
        <ele>1361.3</ele>
        <time>2010-05-07T22:22:22Z</time>
      </trkpt>
      <trkpt lat="44.83561" lon="5.35337">
        <ele>1355.1</ele>
        <time>2010-05-07T22:22:34Z</time>
      </trkpt>
      <trkpt lat="44.8349" lon="5.35383">
        <ele>1354.8</ele>
        <time>2010-05-07T22:22:43Z</time>
      </trkpt>
      <trkpt lat="44.8342" lon="5.35391">
        <ele>1358</ele>
        <time>2010-05-07T22:22:51Z</time>
      </trkpt>
      <trkpt lat="44.83296" lon="5.35502">
        <ele>1324.6</ele>
        <time>2010-05-07T22:23:07Z</time>
      </trkpt>
      <trkpt lat="44.83218" lon="5.35532">
        <ele>1295.6</ele>
        <time>2010-05-07T22:23:16Z</time>
      </trkpt>
      <trkpt lat="44.83197" lon="5.35351">
        <ele>1294.9</ele>
        <time>2010-05-07T22:23:31Z</time>
      </trkpt>
      <trkpt lat="44.83151" lon="5.35267">
        <ele>1277</ele>
        <time>2010-05-07T22:23:39Z</time>
      </trkpt>
      <trkpt lat="44.83053" lon="5.35334">
        <ele>1234.7</ele>
        <time>2010-05-07T22:23:51Z</time>
      </trkpt>
      <trkpt lat="44.83067" lon="5.35203">
        <ele>1237.9</ele>
        <time>2010-05-07T22:24:02Z</time>
      </trkpt>
      <trkpt lat="44.83168" lon="5.35107">
        <ele>1288.7</ele>
        <time>2010-05-07T22:24:15Z</time>
      </trkpt>
      <trkpt lat="44.83236" lon="5.34792">
        <ele>1339.2</ele>
        <time>2010-05-07T22:24:41Z</time>
      </trkpt>
      <trkpt lat="44.83258" lon="5.34712">
        <ele>1353.6</ele>
        <time>2010-05-07T22:24:48Z</time>
      </trkpt>
      <trkpt lat="44.83224" lon="5.34521">
        <ele>1346.4</ele>
        <time>2010-05-07T22:25:03Z</time>
      </trkpt>
      <trkpt lat="44.83174" lon="5.34473">
        <ele>1325.3</ele>
        <time>2010-05-07T22:25:10Z</time>
      </trkpt>
      <trkpt lat="44.83147" lon="5.34394">
        <ele>1317.2</ele>
        <time>2010-05-07T22:25:17Z</time>
      </trkpt>
      <trkpt lat="44.83021" lon="5.34149">
        <ele>1292.1</ele>
        <time>2010-05-07T22:25:41Z</time>
      </trkpt>
      <trkpt lat="44.82926" lon="5.34078">
        <ele>1266.1</ele>
        <time>2010-05-07T22:25:53Z</time>
      </trkpt>
      <trkpt lat="44.82882" lon="5.34076">
        <ele>1247.9</ele>
        <time>2010-05-07T22:25:58Z</time>
      </trkpt>
      <trkpt lat="44.82866" lon="5.34007">
        <ele>1256.3</ele>
        <time>2010-05-07T22:26:03Z</time>
      </trkpt>
      <trkpt lat="44.82716" lon="5.33992">
        <ele>1196.1</ele>
        <time>2010-05-07T22:26:20Z</time>
      </trkpt>
      <trkpt lat="44.82707" lon="5.33934">
        <ele>1205.3</ele>
        <time>2010-05-07T22:26:25Z</time>
      </trkpt>
      <trkpt lat="44.82673" lon="5.33939">
        <ele>1189.9</ele>
        <time>2010-05-07T22:26:29Z</time>
      </trkpt>
      <trkpt lat="44.82655" lon="5.3395">
        <ele>1179.8</ele>
        <time>2010-05-07T22:26:31Z</time>
      </trkpt>
      <trkpt lat="44.82596" lon="5.33919">
        <ele>1162.4</ele>
        <time>2010-05-07T22:26:38Z</time>
      </trkpt>
      <trkpt lat="44.82539" lon="5.33912">
        <ele>1140.6</ele>
        <time>2010-05-07T22:26:44Z</time>
      </trkpt>
      <trkpt lat="44.82381" lon="5.33767">
        <ele>1121.2</ele>
        <time>2010-05-07T22:27:05Z</time>
      </trkpt>
      <trkpt lat="44.82343" lon="5.3374">
        <ele>1113.7</ele>
        <time>2010-05-07T22:27:10Z</time>
      </trkpt>
      <trkpt lat="44.8233" lon="5.33701">
        <ele>1117.2</ele>
        <time>2010-05-07T22:27:13Z</time>
      </trkpt>
      <trkpt lat="44.82321" lon="5.33716">
        <ele>1110.9</ele>
        <time>2010-05-07T22:27:15Z</time>
      </trkpt>
      <trkpt lat="44.82311" lon="5.33691">
        <ele>1112.4</ele>
        <time>2010-05-07T22:27:17Z</time>
      </trkpt>
      <trkpt lat="44.82297" lon="5.33706">
        <ele>1104.5</ele>
        <time>2010-05-07T22:27:19Z</time>
      </trkpt>
      <trkpt lat="44.82306" lon="5.33754">
        <ele>1097.6</ele>
        <time>2010-05-07T22:27:23Z</time>
      </trkpt>
      <trkpt lat="44.82275" lon="5.33761">
        <ele>1085.3</ele>
        <time>2010-05-07T22:27:26Z</time>
      </trkpt>
      <trkpt lat="44.82258" lon="5.33733">
        <ele>1084.9</ele>
        <time>2010-05-07T22:27:29Z</time>
      </trkpt>
      <trkpt lat="44.82257" lon="5.33776">
        <ele>1076.1</ele>
        <time>2010-05-07T22:27:33Z</time>
      </trkpt>
      <trkpt lat="44.82222" lon="5.33734">
        <ele>1072.3</ele>
        <time>2010-05-07T22:27:38Z</time>
      </trkpt>
      <trkpt lat="44.82238" lon="5.33641">
        <ele>1095.4</ele>
        <time>2010-05-07T22:27:45Z</time>
      </trkpt>
      <trkpt lat="44.82153" lon="5.33623">
        <ele>1067</ele>
        <time>2010-05-07T22:27:55Z</time>
      </trkpt>
      <trkpt lat="44.82122" lon="5.33515">
        <ele>1073.8</ele>
        <time>2010-05-07T22:28:04Z</time>
      </trkpt>
      <trkpt lat="44.82124" lon="5.33408">
        <ele>1090</ele>
        <time>2010-05-07T22:28:12Z</time>
      </trkpt>
      <trkpt lat="44.82109" lon="5.33371">
        <ele>1083.2</ele>
        <time>2010-05-07T22:28:16Z</time>
      </trkpt>
      <trkpt lat="44.8212" lon="5.33319">
        <ele>1086.9</ele>
        <time>2010-05-07T22:28:20Z</time>
      </trkpt>
      <trkpt lat="44.82079" lon="5.3331">
        <ele>1069.3</ele>
        <time>2010-05-07T22:28:25Z</time>
      </trkpt>
      <trkpt lat="44.82066" lon="5.33255">
        <ele>1062.7</ele>
        <time>2010-05-07T22:28:29Z</time>
      </trkpt>
      <trkpt lat="44.82064" lon="5.3318">
        <ele>1060.7</ele>
        <time>2010-05-07T22:28:35Z</time>
      </trkpt>
      <trkpt lat="44.82053" lon="5.33166">
        <ele>1055.8</ele>
        <time>2010-05-07T22:28:37Z</time>
      </trkpt>
      <trkpt lat="44.82078" lon="5.33147">
        <ele>1066.1</ele>
        <time>2010-05-07T22:28:40Z</time>
      </trkpt>
      <trkpt lat="44.82083" lon="5.33104">
        <ele>1067.2</ele>
        <time>2010-05-07T22:28:44Z</time>
      </trkpt>
      <trkpt lat="44.82115" lon="5.33053">
        <ele>1080.2</ele>
        <time>2010-05-07T22:28:49Z</time>
      </trkpt>
      <trkpt lat="44.82069" lon="5.32996">
        <ele>1059.3</ele>
        <time>2010-05-07T22:28:56Z</time>
      </trkpt>
      <trkpt lat="44.82095" lon="5.32829">
        <ele>1067.7</ele>
        <time>2010-05-07T22:29:09Z</time>
      </trkpt>
      <trkpt lat="44.82172" lon="5.32802">
        <ele>1102</ele>
        <time>2010-05-07T22:29:18Z</time>
      </trkpt>
      <trkpt lat="44.82159" lon="5.32719">
        <ele>1095.3</ele>
        <time>2010-05-07T22:29:25Z</time>
      </trkpt>
      <trkpt lat="44.82116" lon="5.3266">
        <ele>1074.3</ele>
        <time>2010-05-07T22:29:31Z</time>
      </trkpt>
      <trkpt lat="44.82069" lon="5.32576">
        <ele>1048.7</ele>
        <time>2010-05-07T22:29:40Z</time>
      </trkpt>
      <trkpt lat="44.82019" lon="5.32478">
        <ele>1007.8</ele>
        <time>2010-05-07T22:29:49Z</time>
      </trkpt>
      <trkpt lat="44.81904" lon="5.32419">
        <ele>949.9</ele>
        <time>2010-05-07T22:30:03Z</time>
      </trkpt>
      <trkpt lat="44.81847" lon="5.32378">
        <ele>921</ele>
        <time>2010-05-07T22:30:10Z</time>
      </trkpt>
      <trkpt lat="44.81755" lon="5.32362">
        <ele>882.6</ele>
        <time>2010-05-07T22:30:20Z</time>
      </trkpt>
      <trkpt lat="44.81704" lon="5.32288">
        <ele>856.4</ele>
        <time>2010-05-07T22:30:28Z</time>
      </trkpt>
      <trkpt lat="44.81656" lon="5.32195">
        <ele>839.7</ele>
        <time>2010-05-07T22:30:37Z</time>
      </trkpt>
      <trkpt lat="44.81837" lon="5.32066">
        <ele>879.6</ele>
        <time>2010-05-07T22:31:00Z</time>
      </trkpt>
      <trkpt lat="44.81684" lon="5.32119">
        <ele>838.8</ele>
        <time>2010-05-07T22:31:18Z</time>
      </trkpt>
      <trkpt lat="44.81541" lon="5.32071">
        <ele>810.9</ele>
        <time>2010-05-07T22:31:34Z</time>
      </trkpt>
      <trkpt lat="44.81422" lon="5.32003">
        <ele>786.5</ele>
        <time>2010-05-07T22:31:48Z</time>
      </trkpt>
      <trkpt lat="44.81373" lon="5.32071">
        <ele>782.4</ele>
        <time>2010-05-07T22:31:56Z</time>
      </trkpt>
      <trkpt lat="44.81315" lon="5.3207">
        <ele>772.5</ele>
        <time>2010-05-07T22:32:02Z</time>
      </trkpt>
      <trkpt lat="44.81267" lon="5.32129">
        <ele>767.3</ele>
        <time>2010-05-07T22:32:09Z</time>
      </trkpt>
      <trkpt lat="44.81235" lon="5.32091">
        <ele>760</ele>
        <time>2010-05-07T22:32:14Z</time>
      </trkpt>
      <trkpt lat="44.81257" lon="5.3199">
        <ele>758.7</ele>
        <time>2010-05-07T22:32:22Z</time>
      </trkpt>
      <trkpt lat="44.81292" lon="5.31858">
        <ele>757.3</ele>
        <time>2010-05-07T22:32:33Z</time>
      </trkpt>
      <trkpt lat="44.81229" lon="5.31911">
        <ele>750.1</ele>
        <time>2010-05-07T22:32:42Z</time>
      </trkpt>
      <trkpt lat="44.81161" lon="5.32028">
        <ele>744.5</ele>
        <time>2010-05-07T22:32:53Z</time>
      </trkpt>
      <trkpt lat="44.81195" lon="5.31893">
        <ele>744</ele>
        <time>2010-05-07T22:33:05Z</time>
      </trkpt>
      <trkpt lat="44.81224" lon="5.31838">
        <ele>745.9</ele>
        <time>2010-05-07T22:33:10Z</time>
      </trkpt>
      <trkpt lat="44.81269" lon="5.31795">
        <ele>750.5</ele>
        <time>2010-05-07T22:33:16Z</time>
      </trkpt>
      <trkpt lat="44.81313" lon="5.31795">
        <ele>757.3</ele>
        <time>2010-05-07T22:33:21Z</time>
      </trkpt>
      <trkpt lat="44.81324" lon="5.31753">
        <ele>757</ele>
        <time>2010-05-07T22:33:25Z</time>
      </trkpt>
      <trkpt lat="44.81377" lon="5.31727">
        <ele>765.4</ele>
        <time>2010-05-07T22:33:31Z</time>
      </trkpt>
      <trkpt lat="44.81458" lon="5.31743">
        <ele>777.2</ele>
        <time>2010-05-07T22:33:40Z</time>
      </trkpt>
      <trkpt lat="44.81477" lon="5.31755">
        <ele>779.9</ele>
        <time>2010-05-07T22:33:42Z</time>
      </trkpt>
      <trkpt lat="44.81526" lon="5.31749">
        <ele>787.3</ele>
        <time>2010-05-07T22:33:48Z</time>
      </trkpt>
      <trkpt lat="44.81411" lon="5.31664">
        <ele>771.7</ele>
        <time>2010-05-07T22:34:02Z</time>
      </trkpt>
      <trkpt lat="44.81424" lon="5.31574">
        <ele>775.4</ele>
        <time>2010-05-07T22:34:09Z</time>
      </trkpt>
      <trkpt lat="44.81458" lon="5.31519">
        <ele>781.8</ele>
        <time>2010-05-07T22:34:15Z</time>
      </trkpt>
      <trkpt lat="44.81435" lon="5.31476">
        <ele>779</ele>
        <time>2010-05-07T22:34:19Z</time>
      </trkpt>
      <trkpt lat="44.81397" lon="5.31363">
        <ele>775</ele>
        <time>2010-05-07T22:34:29Z</time>
      </trkpt>
      <trkpt lat="44.8136" lon="5.3133">
        <ele>769.4</ele>
        <time>2010-05-07T22:34:34Z</time>
      </trkpt>
      <trkpt lat="44.81337" lon="5.31289">
        <ele>766.2</ele>
        <time>2010-05-07T22:34:38Z</time>
      </trkpt>
      <trkpt lat="44.81289" lon="5.31284">
        <ele>758.2</ele>
        <time>2010-05-07T22:34:44Z</time>
      </trkpt>
      <trkpt lat="44.81272" lon="5.3124">
        <ele>755.9</ele>
        <time>2010-05-07T22:34:47Z</time>
      </trkpt>
      <trkpt lat="44.81334" lon="5.31091">
        <ele>768.9</ele>
        <time>2010-05-07T22:35:01Z</time>
      </trkpt>
      <trkpt lat="44.8135" lon="5.30939">
        <ele>774.3</ele>
        <time>2010-05-07T22:35:13Z</time>
      </trkpt>
      <trkpt lat="44.81416" lon="5.30829">
        <ele>782.4</ele>
        <time>2010-05-07T22:35:25Z</time>
      </trkpt>
      <trkpt lat="44.81597" lon="5.30598">
        <ele>791</ele>
        <time>2010-05-07T22:35:52Z</time>
      </trkpt>
      <trkpt lat="44.81675" lon="5.30546">
        <ele>793.4</ele>
        <time>2010-05-07T22:36:01Z</time>
      </trkpt>
      <trkpt lat="44.81512" lon="5.30186">
        <ele>754.5</ele>
        <time>2010-05-07T22:36:35Z</time>
      </trkpt>
      <trkpt lat="44.81458" lon="5.30387">
        <ele>765.2</ele>
        <time>2010-05-07T22:36:52Z</time>
      </trkpt>
      <trkpt lat="44.81421" lon="5.30396">
        <ele>763.8</ele>
        <time>2010-05-07T22:36:56Z</time>
      </trkpt>
      <trkpt lat="44.81226" lon="5.30672">
        <ele>752.6</ele>
        <time>2010-05-07T22:37:27Z</time>
      </trkpt>
      <trkpt lat="44.8119" lon="5.30693">
        <ele>747.9</ele>
        <time>2010-05-07T22:37:31Z</time>
      </trkpt>
      <trkpt lat="44.81165" lon="5.30779">
        <ele>743.3</ele>
        <time>2010-05-07T22:37:39Z</time>
      </trkpt>
      <trkpt lat="44.81099" lon="5.3077">
        <ele>733.9</ele>
        <time>2010-05-07T22:37:46Z</time>
      </trkpt>
      <trkpt lat="44.81101" lon="5.30838">
        <ele>731.9</ele>
        <time>2010-05-07T22:37:51Z</time>
      </trkpt>
      <trkpt lat="44.81113" lon="5.30897">
        <ele>732.1</ele>
        <time>2010-05-07T22:37:56Z</time>
      </trkpt>
      <trkpt lat="44.81073" lon="5.30859">
        <ele>726.6</ele>
        <time>2010-05-07T22:38:02Z</time>
      </trkpt>
      <trkpt lat="44.81059" lon="5.30797">
        <ele>727</ele>
        <time>2010-05-07T22:38:07Z</time>
      </trkpt>
      <trkpt lat="44.81037" lon="5.30821">
        <ele>722.4</ele>
        <time>2010-05-07T22:38:10Z</time>
      </trkpt>
      <trkpt lat="44.81045" lon="5.30883">
        <ele>720.8</ele>
        <time>2010-05-07T22:38:15Z</time>
      </trkpt>
      <trkpt lat="44.81064" lon="5.30906">
        <ele>723.1</ele>
        <time>2010-05-07T22:38:18Z</time>
      </trkpt>
      <trkpt lat="44.81087" lon="5.30907">
        <ele>727.2</ele>
        <time>2010-05-07T22:38:20Z</time>
      </trkpt>
      <trkpt lat="44.81123" lon="5.30961">
        <ele>732.8</ele>
        <time>2010-05-07T22:38:26Z</time>
      </trkpt>
      <trkpt lat="44.8114" lon="5.30977">
        <ele>735.7</ele>
        <time>2010-05-07T22:38:28Z</time>
      </trkpt>
      <trkpt lat="44.81139" lon="5.31044">
        <ele>735</ele>
        <time>2010-05-07T22:38:34Z</time>
      </trkpt>
      <trkpt lat="44.811" lon="5.31056">
        <ele>728</ele>
        <time>2010-05-07T22:38:38Z</time>
      </trkpt>
      <trkpt lat="44.81064" lon="5.3105">
        <ele>721.7</ele>
        <time>2010-05-07T22:38:42Z</time>
      </trkpt>
      <trkpt lat="44.81002" lon="5.31044">
        <ele>710.8</ele>
        <time>2010-05-07T22:38:49Z</time>
      </trkpt>
      <trkpt lat="44.80876" lon="5.31145">
        <ele>688.5</ele>
        <time>2010-05-07T22:39:05Z</time>
      </trkpt>
      <trkpt lat="44.8078" lon="5.31307">
        <ele>692.9</ele>
        <time>2010-05-07T22:39:22Z</time>
      </trkpt>
      <trkpt lat="44.80934" lon="5.31386">
        <ele>698.5</ele>
        <time>2010-05-07T22:39:40Z</time>
      </trkpt>
      <trkpt lat="44.80838" lon="5.31446">
        <ele>689.1</ele>
        <time>2010-05-07T22:39:51Z</time>
      </trkpt>
      <trkpt lat="44.80838" lon="5.31511">
        <ele>689.2</ele>
        <time>2010-05-07T22:39:57Z</time>
      </trkpt>
      <trkpt lat="44.808" lon="5.31523">
        <ele>691.8</ele>
        <time>2010-05-07T22:40:01Z</time>
      </trkpt>
      <trkpt lat="44.80888" lon="5.31506">
        <ele>691.1</ele>
        <time>2010-05-07T22:40:11Z</time>
      </trkpt>
      <trkpt lat="44.80945" lon="5.31536">
        <ele>700.3</ele>
        <time>2010-05-07T22:40:18Z</time>
      </trkpt>
      <trkpt lat="44.80976" lon="5.31748">
        <ele>704.7</ele>
        <time>2010-05-07T22:40:35Z</time>
      </trkpt>
      <trkpt lat="44.80955" lon="5.3177">
        <ele>701.9</ele>
        <time>2010-05-07T22:40:38Z</time>
      </trkpt>
      <trkpt lat="44.80862" lon="5.31803">
        <ele>689.4</ele>
        <time>2010-05-07T22:40:48Z</time>
      </trkpt>
      <trkpt lat="44.80829" lon="5.31899">
        <ele>693</ele>
        <time>2010-05-07T22:40:57Z</time>
      </trkpt>
      <trkpt lat="44.808" lon="5.31997">
        <ele>695.2</ele>
        <time>2010-05-07T22:41:05Z</time>
      </trkpt>
      <trkpt lat="44.80789" lon="5.32078">
        <ele>696.1</ele>
        <time>2010-05-07T22:41:11Z</time>
      </trkpt>
      <trkpt lat="44.8071" lon="5.32082">
        <ele>695.7</ele>
        <time>2010-05-07T22:41:20Z</time>
      </trkpt>
      <trkpt lat="44.80782" lon="5.32131">
        <ele>696.5</ele>
        <time>2010-05-07T22:41:29Z</time>
      </trkpt>
      <trkpt lat="44.80713" lon="5.32115">
        <ele>695.6</ele>
        <time>2010-05-07T22:41:37Z</time>
      </trkpt>
      <trkpt lat="44.80761" lon="5.32166">
        <ele>696.4</ele>
        <time>2010-05-07T22:41:44Z</time>
      </trkpt>
      <trkpt lat="44.8086" lon="5.32189">
        <ele>699.3</ele>
        <time>2010-05-07T22:41:55Z</time>
      </trkpt>
      <trkpt lat="44.80878" lon="5.32221">
        <ele>702.6</ele>
        <time>2010-05-07T22:41:58Z</time>
      </trkpt>
      <trkpt lat="44.8082" lon="5.32221">
        <ele>698.7</ele>
        <time>2010-05-07T22:42:04Z</time>
      </trkpt>
      <trkpt lat="44.80734" lon="5.32217">
        <ele>695.6</ele>
        <time>2010-05-07T22:42:14Z</time>
      </trkpt>
      <trkpt lat="44.80666" lon="5.322">
        <ele>693.5</ele>
        <time>2010-05-07T22:42:22Z</time>
      </trkpt>
      <trkpt lat="44.80608" lon="5.32217">
        <ele>691.3</ele>
        <time>2010-05-07T22:42:28Z</time>
      </trkpt>
      <trkpt lat="44.80473" lon="5.32267">
        <ele>683.7</ele>
        <time>2010-05-07T22:42:44Z</time>
      </trkpt>
      <trkpt lat="44.80404" lon="5.32234">
        <ele>683</ele>
        <time>2010-05-07T22:42:52Z</time>
      </trkpt>
      <trkpt lat="44.80366" lon="5.32259">
        <ele>679.5</ele>
        <time>2010-05-07T22:42:56Z</time>
      </trkpt>
      <trkpt lat="44.80247" lon="5.32219">
        <ele>678.6</ele>
        <time>2010-05-07T22:43:10Z</time>
      </trkpt>
      <trkpt lat="44.80235" lon="5.32264">
        <ele>673.3</ele>
        <time>2010-05-07T22:43:14Z</time>
      </trkpt>
      <trkpt lat="44.80272" lon="5.32304">
        <ele>670.9</ele>
        <time>2010-05-07T22:43:19Z</time>
      </trkpt>
      <trkpt lat="44.80244" lon="5.32464">
        <ele>652.1</ele>
        <time>2010-05-07T22:43:32Z</time>
      </trkpt>
      <trkpt lat="44.80256" lon="5.32541">
        <ele>645.1</ele>
        <time>2010-05-07T22:43:38Z</time>
      </trkpt>
      <trkpt lat="44.8024" lon="5.32594">
        <ele>638.1</ele>
        <time>2010-05-07T22:43:43Z</time>
      </trkpt>
      <trkpt lat="44.80243" lon="5.32678">
        <ele>638.3</ele>
        <time>2010-05-07T22:43:49Z</time>
      </trkpt>
      <trkpt lat="44.80217" lon="5.32795">
        <ele>634.9</ele>
        <time>2010-05-07T22:43:59Z</time>
      </trkpt>
      <trkpt lat="44.80176" lon="5.32858">
        <ele>629.2</ele>
        <time>2010-05-07T22:44:06Z</time>
      </trkpt>
      <trkpt lat="44.80155" lon="5.33039">
        <ele>625.3</ele>
        <time>2010-05-07T22:44:20Z</time>
      </trkpt>
      <trkpt lat="44.80272" lon="5.33084">
        <ele>642.2</ele>
        <time>2010-05-07T22:44:34Z</time>
      </trkpt>
      <trkpt lat="44.80336" lon="5.33092">
        <ele>651.5</ele>
        <time>2010-05-07T22:44:41Z</time>
      </trkpt>
      <trkpt lat="44.80402" lon="5.33187">
        <ele>662.1</ele>
        <time>2010-05-07T22:44:52Z</time>
      </trkpt>
      <trkpt lat="44.80259" lon="5.3331">
        <ele>640.3</ele>
        <time>2010-05-07T22:45:10Z</time>
      </trkpt>
      <trkpt lat="44.80229" lon="5.33328">
        <ele>635.4</ele>
        <time>2010-05-07T22:45:14Z</time>
      </trkpt>
      <trkpt lat="44.79925" lon="5.33393">
        <ele>615.6</ele>
        <time>2010-05-07T22:45:48Z</time>
      </trkpt>
      <trkpt lat="44.79872" lon="5.33533">
        <ele>617.1</ele>
        <time>2010-05-07T22:46:01Z</time>
      </trkpt>
      <trkpt lat="44.79882" lon="5.33629">
        <ele>612.5</ele>
        <time>2010-05-07T22:46:08Z</time>
      </trkpt>
      <trkpt lat="44.79812" lon="5.33888">
        <ele>608.7</ele>
        <time>2010-05-07T22:46:30Z</time>
      </trkpt>
      <trkpt lat="44.79809" lon="5.33996">
        <ele>604.3</ele>
        <time>2010-05-07T22:46:39Z</time>
      </trkpt>
      <trkpt lat="44.79825" lon="5.34064">
        <ele>600.4</ele>
        <time>2010-05-07T22:46:44Z</time>
      </trkpt>
      <trkpt lat="44.79859" lon="5.34377">
        <ele>590.7</ele>
        <time>2010-05-07T22:47:09Z</time>
      </trkpt>
      <trkpt lat="44.79918" lon="5.34675">
        <ele>590.1</ele>
        <time>2010-05-07T22:47:34Z</time>
      </trkpt>
      <trkpt lat="44.79907" lon="5.34818">
        <ele>590.9</ele>
        <time>2010-05-07T22:47:45Z</time>
      </trkpt>
      <trkpt lat="44.79951" lon="5.34943">
        <ele>592.2</ele>
        <time>2010-05-07T22:47:56Z</time>
      </trkpt>
      <trkpt lat="44.79704" lon="5.3494">
        <ele>588.4</ele>
        <time>2010-05-07T22:48:23Z</time>
      </trkpt>
      <trkpt lat="44.795" lon="5.34901">
        <ele>586.7</ele>
        <time>2010-05-07T22:48:46Z</time>
      </trkpt>
      <trkpt lat="44.79361" lon="5.34802">
        <ele>589.8</ele>
        <time>2010-05-07T22:49:04Z</time>
      </trkpt>
      <trkpt lat="44.79363" lon="5.34988">
        <ele>580.9</ele>
        <time>2010-05-07T22:49:18Z</time>
      </trkpt>
      <trkpt lat="44.79441" lon="5.35157">
        <ele>583.5</ele>
        <time>2010-05-07T22:49:34Z</time>
      </trkpt>
      <trkpt lat="44.79371" lon="5.35328">
        <ele>596.2</ele>
        <time>2010-05-07T22:49:50Z</time>
      </trkpt>
      <trkpt lat="44.7949" lon="5.35377">
        <ele>601.6</ele>
        <time>2010-05-07T22:50:03Z</time>
      </trkpt>
      <trkpt lat="44.79478" lon="5.35544">
        <ele>614.5</ele>
        <time>2010-05-07T22:50:17Z</time>
      </trkpt>
      <trkpt lat="44.79458" lon="5.35722">
        <ele>628.6</ele>
        <time>2010-05-07T22:50:31Z</time>
      </trkpt>
      <trkpt lat="44.79389" lon="5.35902">
        <ele>644.3</ele>
        <time>2010-05-07T22:50:47Z</time>
      </trkpt>
      <trkpt lat="44.794" lon="5.36055">
        <ele>634.7</ele>
        <time>2010-05-07T22:50:59Z</time>
      </trkpt>
      <trkpt lat="44.79341" lon="5.36152">
        <ele>624.3</ele>
        <time>2010-05-07T22:51:09Z</time>
      </trkpt>
      <trkpt lat="44.79343" lon="5.36196">
        <ele>619.8</ele>
        <time>2010-05-07T22:51:13Z</time>
      </trkpt>
      <trkpt lat="44.79268" lon="5.36231">
        <ele>612.3</ele>
        <time>2010-05-07T22:51:21Z</time>
      </trkpt>
      <trkpt lat="44.79263" lon="5.363">
        <ele>603.5</ele>
        <time>2010-05-07T22:51:27Z</time>
      </trkpt>
      <trkpt lat="44.79231" lon="5.36551">
        <ele>568.5</ele>
        <time>2010-05-07T22:51:47Z</time>
      </trkpt>
      <trkpt lat="44.79172" lon="5.36566">
        <ele>561.1</ele>
        <time>2010-05-07T22:51:54Z</time>
      </trkpt>
      <trkpt lat="44.79136" lon="5.36385">
        <ele>585.7</ele>
        <time>2010-05-07T22:52:09Z</time>
      </trkpt>
      <trkpt lat="44.79102" lon="5.36414">
        <ele>580.6</ele>
        <time>2010-05-07T22:52:13Z</time>
      </trkpt>
      <trkpt lat="44.79079" lon="5.36539">
        <ele>561.6</ele>
        <time>2010-05-07T22:52:23Z</time>
      </trkpt>
      <trkpt lat="44.79153" lon="5.36687">
        <ele>543.2</ele>
        <time>2010-05-07T22:52:37Z</time>
      </trkpt>
      <trkpt lat="44.7927" lon="5.3685">
        <ele>553.8</ele>
        <time>2010-05-07T22:52:56Z</time>
      </trkpt>
      <trkpt lat="44.79451" lon="5.37239">
        <ele>592.5</ele>
        <time>2010-05-07T22:53:33Z</time>
      </trkpt>
      <trkpt lat="44.79471" lon="5.37305">
        <ele>595.3</ele>
        <time>2010-05-07T22:53:38Z</time>
      </trkpt>
      <trkpt lat="44.79477" lon="5.37541">
        <ele>599.8</ele>
        <time>2010-05-07T22:53:57Z</time>
      </trkpt>
      <trkpt lat="44.79539" lon="5.37762">
        <ele>598.7</ele>
        <time>2010-05-07T22:54:16Z</time>
      </trkpt>
      <trkpt lat="44.79565" lon="5.37851">
        <ele>597.3</ele>
        <time>2010-05-07T22:54:23Z</time>
      </trkpt>
      <trkpt lat="44.79585" lon="5.38135">
        <ele>592.7</ele>
        <time>2010-05-07T22:54:46Z</time>
      </trkpt>
      <trkpt lat="44.79649" lon="5.38278">
        <ele>588.3</ele>
        <time>2010-05-07T22:54:59Z</time>
      </trkpt>
      <trkpt lat="44.79515" lon="5.38293">
        <ele>592.8</ele>
        <time>2010-05-07T22:55:14Z</time>
      </trkpt>
      <trkpt lat="44.79425" lon="5.37961">
        <ele>598.2</ele>
        <time>2010-05-07T22:55:42Z</time>
      </trkpt>
      <trkpt lat="44.79414" lon="5.37681">
        <ele>600</ele>
        <time>2010-05-07T22:56:04Z</time>
      </trkpt>
      <trkpt lat="44.79349" lon="5.37364">
        <ele>590</ele>
        <time>2010-05-07T22:56:30Z</time>
      </trkpt>
      <trkpt lat="44.79303" lon="5.37083">
        <ele>572.2</ele>
        <time>2010-05-07T22:56:53Z</time>
      </trkpt>
      <trkpt lat="44.79071" lon="5.3683">
        <ele>536.4</ele>
        <time>2010-05-07T22:57:26Z</time>
      </trkpt>
      <trkpt lat="44.79053" lon="5.36729">
        <ele>532.3</ele>
        <time>2010-05-07T22:57:34Z</time>
      </trkpt>
      <trkpt lat="44.79014" lon="5.36766">
        <ele>526.5</ele>
        <time>2010-05-07T22:57:39Z</time>
      </trkpt>
      <trkpt lat="44.78951" lon="5.36693">
        <ele>533</ele>
        <time>2010-05-07T22:57:48Z</time>
      </trkpt>
      <trkpt lat="44.78896" lon="5.36764">
        <ele>520.4</ele>
        <time>2010-05-07T22:57:56Z</time>
      </trkpt>
      <trkpt lat="44.78904" lon="5.3683">
        <ele>530.9</ele>
        <time>2010-05-07T22:58:02Z</time>
      </trkpt>
      <trkpt lat="44.79017" lon="5.36884">
        <ele>541.3</ele>
        <time>2010-05-07T22:58:15Z</time>
      </trkpt>
      <trkpt lat="44.79008" lon="5.36993">
        <ele>554.9</ele>
        <time>2010-05-07T22:58:24Z</time>
      </trkpt>
      <trkpt lat="44.7894" lon="5.3698">
        <ele>553.8</ele>
        <time>2010-05-07T22:58:31Z</time>
      </trkpt>
      <trkpt lat="44.78936" lon="5.37028">
        <ele>560.8</ele>
        <time>2010-05-07T22:58:35Z</time>
      </trkpt>
      <trkpt lat="44.7891" lon="5.36957">
        <ele>550.4</ele>
        <time>2010-05-07T22:58:41Z</time>
      </trkpt>
      <trkpt lat="44.78782" lon="5.37076">
        <ele>572.7</ele>
        <time>2010-05-07T22:58:58Z</time>
      </trkpt>
      <trkpt lat="44.78822" lon="5.372">
        <ele>593.1</ele>
        <time>2010-05-07T22:59:09Z</time>
      </trkpt>
      <trkpt lat="44.78692" lon="5.3718">
        <ele>597.2</ele>
        <time>2010-05-07T22:59:24Z</time>
      </trkpt>
      <trkpt lat="44.78631" lon="5.37168">
        <ele>598.1</ele>
        <time>2010-05-07T22:59:30Z</time>
      </trkpt>
      <trkpt lat="44.78581" lon="5.37187">
        <ele>605.4</ele>
        <time>2010-05-07T22:59:36Z</time>
      </trkpt>
      <trkpt lat="44.78545" lon="5.3736">
        <ele>650.1</ele>
        <time>2010-05-07T22:59:50Z</time>
      </trkpt>
      <trkpt lat="44.78486" lon="5.3737">
        <ele>658.9</ele>
        <time>2010-05-07T22:59:57Z</time>
      </trkpt>
      <trkpt lat="44.78406" lon="5.3733">
        <ele>656.4</ele>
        <time>2010-05-07T23:00:06Z</time>
      </trkpt>
      <trkpt lat="44.78332" lon="5.37209">
        <ele>621.4</ele>
        <time>2010-05-07T23:00:19Z</time>
      </trkpt>
      <trkpt lat="44.78281" lon="5.37127">
        <ele>593.9</ele>
        <time>2010-05-07T23:00:28Z</time>
      </trkpt>
      <trkpt lat="44.78044" lon="5.37058">
        <ele>558.4</ele>
        <time>2010-05-07T23:00:55Z</time>
      </trkpt>
      <trkpt lat="44.77993" lon="5.37007">
        <ele>544.3</ele>
        <time>2010-05-07T23:01:02Z</time>
      </trkpt>
      <trkpt lat="44.77939" lon="5.3703">
        <ele>545.8</ele>
        <time>2010-05-07T23:01:08Z</time>
      </trkpt>
      <trkpt lat="44.77853" lon="5.37004">
        <ele>535.7</ele>
        <time>2010-05-07T23:01:18Z</time>
      </trkpt>
      <trkpt lat="44.77705" lon="5.36865">
        <ele>507.3</ele>
        <time>2010-05-07T23:01:37Z</time>
      </trkpt>
      <trkpt lat="44.77602" lon="5.36949">
        <ele>514.8</ele>
        <time>2010-05-07T23:01:51Z</time>
      </trkpt>
      <trkpt lat="44.77558" lon="5.37106">
        <ele>530.3</ele>
        <time>2010-05-07T23:02:04Z</time>
      </trkpt>
      <trkpt lat="44.77586" lon="5.37181">
        <ele>541.4</ele>
        <time>2010-05-07T23:02:11Z</time>
      </trkpt>
      <trkpt lat="44.77551" lon="5.37253">
        <ele>545.7</ele>
        <time>2010-05-07T23:02:18Z</time>
      </trkpt>
      <trkpt lat="44.77591" lon="5.37445">
        <ele>573.1</ele>
        <time>2010-05-07T23:02:33Z</time>
      </trkpt>
      <trkpt lat="44.77591" lon="5.37588">
        <ele>589.8</ele>
        <time>2010-05-07T23:02:45Z</time>
      </trkpt>
      <trkpt lat="44.77609" lon="5.37714">
        <ele>593.9</ele>
        <time>2010-05-07T23:02:55Z</time>
      </trkpt>
      <trkpt lat="44.77697" lon="5.37965">
        <ele>615.2</ele>
        <time>2010-05-07T23:03:17Z</time>
      </trkpt>
      <trkpt lat="44.77637" lon="5.38027">
        <ele>600.8</ele>
        <time>2010-05-07T23:03:25Z</time>
      </trkpt>
      <trkpt lat="44.77562" lon="5.37953">
        <ele>582.4</ele>
        <time>2010-05-07T23:03:35Z</time>
      </trkpt>
      <trkpt lat="44.77558" lon="5.38091">
        <ele>580.4</ele>
        <time>2010-05-07T23:03:46Z</time>
      </trkpt>
      <trkpt lat="44.77466" lon="5.3819">
        <ele>563.6</ele>
        <time>2010-05-07T23:03:59Z</time>
      </trkpt>
      <trkpt lat="44.77386" lon="5.38099">
        <ele>554.1</ele>
        <time>2010-05-07T23:04:11Z</time>
      </trkpt>
      <trkpt lat="44.77042" lon="5.38279">
        <ele>508.3</ele>
        <time>2010-05-07T23:04:51Z</time>
      </trkpt>
      <trkpt lat="44.76762" lon="5.38074">
        <ele>472.6</ele>
        <time>2010-05-07T23:05:26Z</time>
      </trkpt>
      <trkpt lat="44.7664" lon="5.37906">
        <ele>463.1</ele>
        <time>2010-05-07T23:05:45Z</time>
      </trkpt>
      <trkpt lat="44.76214" lon="5.3776">
        <ele>457.9</ele>
        <time>2010-05-07T23:06:34Z</time>
      </trkpt>
      <trkpt lat="44.75925" lon="5.37682">
        <ele>455.8</ele>
        <time>2010-05-07T23:07:07Z</time>
      </trkpt>
      <trkpt lat="44.75838" lon="5.37482">
        <ele>450.6</ele>
        <time>2010-05-07T23:07:25Z</time>
      </trkpt>
      <trkpt lat="44.75732" lon="5.37404">
        <ele>442.3</ele>
        <time>2010-05-07T23:07:39Z</time>
      </trkpt>
      <trkpt lat="44.7575" lon="5.37299">
        <ele>438.7</ele>
        <time>2010-05-07T23:07:47Z</time>
      </trkpt>
      <trkpt lat="44.75738" lon="5.37123">
        <ele>430.8</ele>
        <time>2010-05-07T23:08:01Z</time>
      </trkpt>
    </trkseg>
  </trk>
</gpx>